<?xml version="1.0" encoding="UTF-8" standalone="no" ?>
<gpx xmlns="http://www.topografix.com/GPX/1/1" xmlns:xsi="http://www.w3.org/2001/XMLSchema-instance" xsi:schemaLocation="http://www.topografix.com/GPX/1/1 http://www.topografix.com/GPX/1/1/gpx.xsd" version="1.1" creator="VisuGPX - https://www.visugpx.com">
  <metadata>
    <name>Gorges de la Fou</name>
    <desc><![CDATA[An départ de Céret 66400 sotie vers les goges de la Fou]]></desc>
  </metadata>
  <trk>
    <name><![CDATA[2014-06-05 20:38:37]]></name>
    <trkseg>
      <trkpt lat="42.49213" lon="2.78243">
        <ele>141.45</ele>
        <time>2014-06-04T07:42:47Z</time>
      </trkpt>
      <trkpt lat="42.49215" lon="2.78241">
        <ele>140.01</ele>
        <time>2014-06-04T07:43:03Z</time>
      </trkpt>
      <trkpt lat="42.49215" lon="2.7824">
        <ele>140.49</ele>
        <time>2014-06-04T18:30:04Z</time>
      </trkpt>
      <trkpt lat="42.49208" lon="2.78226">
        <ele>141.93</ele>
        <time>2014-06-04T18:30:35Z</time>
      </trkpt>
      <trkpt lat="42.49208" lon="2.78227">
        <ele>141.93</ele>
        <time>2014-06-04T18:30:36Z</time>
      </trkpt>
      <trkpt lat="42.49196" lon="2.78217">
        <ele>130.4</ele>
        <time>2014-06-05T04:36:38Z</time>
      </trkpt>
      <trkpt lat="42.49217" lon="2.78236">
        <ele>140.97</ele>
        <time>2014-06-05T04:37:02Z</time>
      </trkpt>
      <trkpt lat="42.49219" lon="2.78242">
        <ele>142.89</ele>
        <time>2014-06-05T04:37:16Z</time>
      </trkpt>
      <trkpt lat="42.49237" lon="2.78237">
        <ele>144.34</ele>
        <time>2014-06-05T04:37:31Z</time>
      </trkpt>
      <trkpt lat="42.49238" lon="2.78222">
        <ele>142.41</ele>
        <time>2014-06-05T04:37:36Z</time>
      </trkpt>
      <trkpt lat="42.49215" lon="2.78175">
        <ele>142.89</ele>
        <time>2014-06-05T04:37:51Z</time>
      </trkpt>
      <trkpt lat="42.49209" lon="2.78161">
        <ele>142.89</ele>
        <time>2014-06-05T04:37:57Z</time>
      </trkpt>
      <trkpt lat="42.49218" lon="2.78171">
        <ele>141.45</ele>
        <time>2014-06-05T04:38:05Z</time>
      </trkpt>
      <trkpt lat="42.4922" lon="2.78177">
        <ele>141.45</ele>
        <time>2014-06-05T04:38:06Z</time>
      </trkpt>
      <trkpt lat="42.49277" lon="2.78284">
        <ele>139.53</ele>
        <time>2014-06-05T04:38:23Z</time>
      </trkpt>
      <trkpt lat="42.4928" lon="2.78291">
        <ele>139.53</ele>
        <time>2014-06-05T04:38:24Z</time>
      </trkpt>
      <trkpt lat="42.49306" lon="2.78432">
        <ele>139.53</ele>
        <time>2014-06-05T04:38:41Z</time>
      </trkpt>
      <trkpt lat="42.49322" lon="2.78568">
        <ele>141.45</ele>
        <time>2014-06-05T04:38:57Z</time>
      </trkpt>
      <trkpt lat="42.49333" lon="2.78692">
        <ele>141.93</ele>
        <time>2014-06-05T04:39:11Z</time>
      </trkpt>
      <trkpt lat="42.4934" lon="2.78825">
        <ele>142.41</ele>
        <time>2014-06-05T04:39:27Z</time>
      </trkpt>
      <trkpt lat="42.49334" lon="2.78921">
        <ele>140.49</ele>
        <time>2014-06-05T04:39:38Z</time>
      </trkpt>
      <trkpt lat="42.49326" lon="2.79053">
        <ele>138.57</ele>
        <time>2014-06-05T04:39:52Z</time>
      </trkpt>
      <trkpt lat="42.4932" lon="2.79162">
        <ele>142.89</ele>
        <time>2014-06-05T04:40:06Z</time>
      </trkpt>
      <trkpt lat="42.4931" lon="2.79296">
        <ele>143.85</ele>
        <time>2014-06-05T04:40:25Z</time>
      </trkpt>
      <trkpt lat="42.49294" lon="2.79412">
        <ele>149.14</ele>
        <time>2014-06-05T04:40:42Z</time>
      </trkpt>
      <trkpt lat="42.49248" lon="2.79515">
        <ele>145.78</ele>
        <time>2014-06-05T04:40:59Z</time>
      </trkpt>
      <trkpt lat="42.49212" lon="2.79586">
        <ele>141.93</ele>
        <time>2014-06-05T04:41:11Z</time>
      </trkpt>
      <trkpt lat="42.4918" lon="2.79639">
        <ele>140.97</ele>
        <time>2014-06-05T04:41:19Z</time>
      </trkpt>
      <trkpt lat="42.49157" lon="2.79742">
        <ele>139.53</ele>
        <time>2014-06-05T04:41:31Z</time>
      </trkpt>
      <trkpt lat="42.49142" lon="2.79847">
        <ele>136.64</ele>
        <time>2014-06-05T04:41:44Z</time>
      </trkpt>
      <trkpt lat="42.49108" lon="2.79985">
        <ele>137.61</ele>
        <time>2014-06-05T04:42:04Z</time>
      </trkpt>
      <trkpt lat="42.49075" lon="2.80126">
        <ele>136.64</ele>
        <time>2014-06-05T04:42:22Z</time>
      </trkpt>
      <trkpt lat="42.49033" lon="2.80252">
        <ele>132.8</ele>
        <time>2014-06-05T04:42:34Z</time>
      </trkpt>
      <trkpt lat="42.49029" lon="2.80259">
        <ele>132.32</ele>
        <time>2014-06-05T04:42:35Z</time>
      </trkpt>
      <trkpt lat="42.49021" lon="2.80269">
        <ele>131.36</ele>
        <time>2014-06-05T04:42:37Z</time>
      </trkpt>
      <trkpt lat="42.49028" lon="2.80298">
        <ele>129.92</ele>
        <time>2014-06-05T04:42:43Z</time>
      </trkpt>
      <trkpt lat="42.49033" lon="2.80297">
        <ele>129.92</ele>
        <time>2014-06-05T04:42:44Z</time>
      </trkpt>
      <trkpt lat="42.49042" lon="2.80293">
        <ele>130.4</ele>
        <time>2014-06-05T04:42:46Z</time>
      </trkpt>
      <trkpt lat="42.49056" lon="2.80277">
        <ele>130.4</ele>
        <time>2014-06-05T04:42:50Z</time>
      </trkpt>
      <trkpt lat="42.49079" lon="2.80209">
        <ele>133.76</ele>
        <time>2014-06-05T04:43:05Z</time>
      </trkpt>
      <trkpt lat="42.49117" lon="2.80211">
        <ele>139.05</ele>
        <time>2014-06-05T04:43:17Z</time>
      </trkpt>
      <trkpt lat="42.49149" lon="2.80221">
        <ele>142.41</ele>
        <time>2014-06-05T04:43:26Z</time>
      </trkpt>
      <trkpt lat="42.49215" lon="2.80233">
        <ele>145.78</ele>
        <time>2014-06-05T04:43:40Z</time>
      </trkpt>
      <trkpt lat="42.49288" lon="2.80229">
        <ele>142.41</ele>
        <time>2014-06-05T04:43:52Z</time>
      </trkpt>
      <trkpt lat="42.4941" lon="2.80172">
        <ele>137.61</ele>
        <time>2014-06-05T04:44:12Z</time>
      </trkpt>
      <trkpt lat="42.49482" lon="2.80141">
        <ele>136.64</ele>
        <time>2014-06-05T04:44:24Z</time>
      </trkpt>
      <trkpt lat="42.49524" lon="2.80124">
        <ele>136.16</ele>
        <time>2014-06-05T04:44:31Z</time>
      </trkpt>
      <trkpt lat="42.4962" lon="2.80068">
        <ele>134.24</ele>
        <time>2014-06-05T04:44:47Z</time>
      </trkpt>
      <trkpt lat="42.49737" lon="2.79992">
        <ele>131.84</ele>
        <time>2014-06-05T04:45:07Z</time>
      </trkpt>
      <trkpt lat="42.49857" lon="2.79912">
        <ele>128.47</ele>
        <time>2014-06-05T04:45:28Z</time>
      </trkpt>
      <trkpt lat="42.49967" lon="2.79852">
        <ele>126.55</ele>
        <time>2014-06-05T04:45:46Z</time>
      </trkpt>
      <trkpt lat="42.50042" lon="2.79824">
        <ele>126.55</ele>
        <time>2014-06-05T04:45:58Z</time>
      </trkpt>
      <trkpt lat="42.50055" lon="2.79823">
        <ele>126.55</ele>
        <time>2014-06-05T04:46:00Z</time>
      </trkpt>
      <trkpt lat="42.50188" lon="2.79836">
        <ele>123.67</ele>
        <time>2014-06-05T04:46:19Z</time>
      </trkpt>
      <trkpt lat="42.50317" lon="2.7982">
        <ele>122.71</ele>
        <time>2014-06-05T04:46:38Z</time>
      </trkpt>
      <trkpt lat="42.50368" lon="2.79803">
        <ele>122.22</ele>
        <time>2014-06-05T04:46:46Z</time>
      </trkpt>
      <trkpt lat="42.50406" lon="2.7983">
        <ele>122.22</ele>
        <time>2014-06-05T04:46:53Z</time>
      </trkpt>
      <trkpt lat="42.50426" lon="2.79885">
        <ele>122.22</ele>
        <time>2014-06-05T04:47:00Z</time>
      </trkpt>
      <trkpt lat="42.50471" lon="2.79918">
        <ele>119.82</ele>
        <time>2014-06-05T04:47:08Z</time>
      </trkpt>
      <trkpt lat="42.50485" lon="2.79881">
        <ele>117.42</ele>
        <time>2014-06-05T04:47:13Z</time>
      </trkpt>
      <trkpt lat="42.50459" lon="2.7986">
        <ele>115.98</ele>
        <time>2014-06-05T04:47:17Z</time>
      </trkpt>
      <trkpt lat="42.50425" lon="2.79804">
        <ele>113.57</ele>
        <time>2014-06-05T04:47:24Z</time>
      </trkpt>
      <trkpt lat="42.50425" lon="2.79791">
        <ele>113.09</ele>
        <time>2014-06-05T04:47:25Z</time>
      </trkpt>
      <trkpt lat="42.50453" lon="2.79622">
        <ele>103.96</ele>
        <time>2014-06-05T04:47:37Z</time>
      </trkpt>
      <trkpt lat="42.5046" lon="2.79594">
        <ele>103</ele>
        <time>2014-06-05T04:47:39Z</time>
      </trkpt>
      <trkpt lat="42.50513" lon="2.79497">
        <ele>102.52</ele>
        <time>2014-06-05T04:47:49Z</time>
      </trkpt>
      <trkpt lat="42.50576" lon="2.79396">
        <ele>102.04</ele>
        <time>2014-06-05T04:48:04Z</time>
      </trkpt>
      <trkpt lat="42.50637" lon="2.79304">
        <ele>103.48</ele>
        <time>2014-06-05T04:48:20Z</time>
      </trkpt>
      <trkpt lat="42.50641" lon="2.793">
        <ele>103.48</ele>
        <time>2014-06-05T04:48:21Z</time>
      </trkpt>
      <trkpt lat="42.5066" lon="2.79293">
        <ele>104.92</ele>
        <time>2014-06-05T04:48:25Z</time>
      </trkpt>
      <trkpt lat="42.50753" lon="2.79309">
        <ele>106.36</ele>
        <time>2014-06-05T04:48:44Z</time>
      </trkpt>
      <trkpt lat="42.50758" lon="2.7931">
        <ele>105.88</ele>
        <time>2014-06-05T04:48:45Z</time>
      </trkpt>
      <trkpt lat="42.50851" lon="2.79331">
        <ele>104.92</ele>
        <time>2014-06-05T04:49:02Z</time>
      </trkpt>
      <trkpt lat="42.50882" lon="2.7932">
        <ele>107.32</ele>
        <time>2014-06-05T04:49:09Z</time>
      </trkpt>
      <trkpt lat="42.50893" lon="2.7931">
        <ele>108.29</ele>
        <time>2014-06-05T04:49:12Z</time>
      </trkpt>
      <trkpt lat="42.50907" lon="2.79289">
        <ele>110.21</ele>
        <time>2014-06-05T04:49:17Z</time>
      </trkpt>
      <trkpt lat="42.50941" lon="2.7924">
        <ele>112.13</ele>
        <time>2014-06-05T04:49:28Z</time>
      </trkpt>
      <trkpt lat="42.50971" lon="2.79201">
        <ele>111.17</ele>
        <time>2014-06-05T04:49:37Z</time>
      </trkpt>
      <trkpt lat="42.50992" lon="2.79187">
        <ele>112.13</ele>
        <time>2014-06-05T04:49:42Z</time>
      </trkpt>
      <trkpt lat="42.51028" lon="2.7915">
        <ele>109.73</ele>
        <time>2014-06-05T04:49:51Z</time>
      </trkpt>
      <trkpt lat="42.51048" lon="2.79129">
        <ele>110.21</ele>
        <time>2014-06-05T04:49:56Z</time>
      </trkpt>
      <trkpt lat="42.51091" lon="2.79096">
        <ele>111.17</ele>
        <time>2014-06-05T04:50:06Z</time>
      </trkpt>
      <trkpt lat="42.51148" lon="2.79024">
        <ele>109.73</ele>
        <time>2014-06-05T04:50:22Z</time>
      </trkpt>
      <trkpt lat="42.51172" lon="2.78982">
        <ele>108.29</ele>
        <time>2014-06-05T04:50:29Z</time>
      </trkpt>
      <trkpt lat="42.51236" lon="2.78896">
        <ele>108.29</ele>
        <time>2014-06-05T04:50:45Z</time>
      </trkpt>
      <trkpt lat="42.51245" lon="2.7889">
        <ele>109.25</ele>
        <time>2014-06-05T04:50:47Z</time>
      </trkpt>
      <trkpt lat="42.51282" lon="2.78848">
        <ele>114.53</ele>
        <time>2014-06-05T04:51:00Z</time>
      </trkpt>
      <trkpt lat="42.51299" lon="2.78772">
        <ele>116.94</ele>
        <time>2014-06-05T04:51:16Z</time>
      </trkpt>
      <trkpt lat="42.51338" lon="2.78741">
        <ele>118.38</ele>
        <time>2014-06-05T04:51:28Z</time>
      </trkpt>
      <trkpt lat="42.51413" lon="2.78711">
        <ele>122.22</ele>
        <time>2014-06-05T04:51:45Z</time>
      </trkpt>
      <trkpt lat="42.51432" lon="2.78705">
        <ele>122.71</ele>
        <time>2014-06-05T04:51:49Z</time>
      </trkpt>
      <trkpt lat="42.51474" lon="2.78718">
        <ele>122.71</ele>
        <time>2014-06-05T04:51:58Z</time>
      </trkpt>
      <trkpt lat="42.51475" lon="2.78687">
        <ele>120.78</ele>
        <time>2014-06-05T04:52:04Z</time>
      </trkpt>
      <trkpt lat="42.51469" lon="2.78676">
        <ele>120.3</ele>
        <time>2014-06-05T04:52:06Z</time>
      </trkpt>
      <trkpt lat="42.51456" lon="2.78648">
        <ele>119.34</ele>
        <time>2014-06-05T04:52:11Z</time>
      </trkpt>
      <trkpt lat="42.51392" lon="2.78556">
        <ele>117.9</ele>
        <time>2014-06-05T04:52:28Z</time>
      </trkpt>
      <trkpt lat="42.51327" lon="2.78415">
        <ele>117.9</ele>
        <time>2014-06-05T04:52:50Z</time>
      </trkpt>
      <trkpt lat="42.51286" lon="2.78293">
        <ele>117.9</ele>
        <time>2014-06-05T04:53:08Z</time>
      </trkpt>
      <trkpt lat="42.51246" lon="2.7815">
        <ele>118.38</ele>
        <time>2014-06-05T04:53:29Z</time>
      </trkpt>
      <trkpt lat="42.51182" lon="2.78002">
        <ele>117.9</ele>
        <time>2014-06-05T04:53:52Z</time>
      </trkpt>
      <trkpt lat="42.51115" lon="2.77854">
        <ele>117.42</ele>
        <time>2014-06-05T04:54:14Z</time>
      </trkpt>
      <trkpt lat="42.51045" lon="2.777">
        <ele>116.94</ele>
        <time>2014-06-05T04:54:33Z</time>
      </trkpt>
      <trkpt lat="42.50988" lon="2.7757">
        <ele>120.3</ele>
        <time>2014-06-05T04:54:54Z</time>
      </trkpt>
      <trkpt lat="42.50919" lon="2.77416">
        <ele>121.74</ele>
        <time>2014-06-05T04:55:18Z</time>
      </trkpt>
      <trkpt lat="42.50858" lon="2.77283">
        <ele>123.67</ele>
        <time>2014-06-05T04:55:39Z</time>
      </trkpt>
      <trkpt lat="42.50794" lon="2.77141">
        <ele>125.59</ele>
        <time>2014-06-05T04:56:02Z</time>
      </trkpt>
      <trkpt lat="42.50732" lon="2.77002">
        <ele>127.03</ele>
        <time>2014-06-05T04:56:24Z</time>
      </trkpt>
      <trkpt lat="42.50671" lon="2.76864">
        <ele>127.51</ele>
        <time>2014-06-05T04:56:46Z</time>
      </trkpt>
      <trkpt lat="42.50611" lon="2.76728">
        <ele>130.4</ele>
        <time>2014-06-05T04:57:08Z</time>
      </trkpt>
      <trkpt lat="42.50543" lon="2.76575">
        <ele>132.32</ele>
        <time>2014-06-05T04:57:32Z</time>
      </trkpt>
      <trkpt lat="42.50483" lon="2.7644">
        <ele>133.76</ele>
        <time>2014-06-05T04:57:53Z</time>
      </trkpt>
      <trkpt lat="42.50417" lon="2.76296">
        <ele>133.28</ele>
        <time>2014-06-05T04:58:15Z</time>
      </trkpt>
      <trkpt lat="42.50405" lon="2.76272">
        <ele>133.76</ele>
        <time>2014-06-05T04:58:19Z</time>
      </trkpt>
      <trkpt lat="42.50367" lon="2.76187">
        <ele>135.68</ele>
        <time>2014-06-05T04:58:33Z</time>
      </trkpt>
      <trkpt lat="42.50319" lon="2.76078">
        <ele>136.16</ele>
        <time>2014-06-05T04:58:51Z</time>
      </trkpt>
      <trkpt lat="42.50263" lon="2.7596">
        <ele>138.09</ele>
        <time>2014-06-05T04:59:11Z</time>
      </trkpt>
      <trkpt lat="42.5024" lon="2.75931">
        <ele>138.09</ele>
        <time>2014-06-05T04:59:17Z</time>
      </trkpt>
      <trkpt lat="42.50224" lon="2.75887">
        <ele>139.05</ele>
        <time>2014-06-05T04:59:24Z</time>
      </trkpt>
      <trkpt lat="42.50188" lon="2.75786">
        <ele>139.53</ele>
        <time>2014-06-05T04:59:40Z</time>
      </trkpt>
      <trkpt lat="42.50133" lon="2.75663">
        <ele>141.45</ele>
        <time>2014-06-05T05:00:00Z</time>
      </trkpt>
      <trkpt lat="42.50072" lon="2.75528">
        <ele>143.37</ele>
        <time>2014-06-05T05:00:22Z</time>
      </trkpt>
      <trkpt lat="42.50013" lon="2.75391">
        <ele>143.85</ele>
        <time>2014-06-05T05:00:44Z</time>
      </trkpt>
      <trkpt lat="42.49962" lon="2.75273">
        <ele>144.34</ele>
        <time>2014-06-05T05:01:03Z</time>
      </trkpt>
      <trkpt lat="42.49957" lon="2.7526">
        <ele>144.34</ele>
        <time>2014-06-05T05:01:05Z</time>
      </trkpt>
      <trkpt lat="42.4995" lon="2.75217">
        <ele>144.34</ele>
        <time>2014-06-05T05:01:11Z</time>
      </trkpt>
      <trkpt lat="42.49941" lon="2.7519">
        <ele>144.34</ele>
        <time>2014-06-05T05:01:15Z</time>
      </trkpt>
      <trkpt lat="42.49935" lon="2.75178">
        <ele>144.34</ele>
        <time>2014-06-05T05:01:17Z</time>
      </trkpt>
      <trkpt lat="42.49889" lon="2.7507">
        <ele>145.78</ele>
        <time>2014-06-05T05:01:34Z</time>
      </trkpt>
      <trkpt lat="42.49826" lon="2.74966">
        <ele>146.74</ele>
        <time>2014-06-05T05:01:52Z</time>
      </trkpt>
      <trkpt lat="42.49819" lon="2.74954">
        <ele>146.74</ele>
        <time>2014-06-05T05:01:54Z</time>
      </trkpt>
      <trkpt lat="42.49812" lon="2.74935">
        <ele>147.22</ele>
        <time>2014-06-05T05:01:57Z</time>
      </trkpt>
      <trkpt lat="42.49774" lon="2.74857">
        <ele>148.18</ele>
        <time>2014-06-05T05:02:10Z</time>
      </trkpt>
      <trkpt lat="42.49722" lon="2.74741">
        <ele>149.14</ele>
        <time>2014-06-05T05:02:29Z</time>
      </trkpt>
      <trkpt lat="42.49709" lon="2.74712">
        <ele>149.62</ele>
        <time>2014-06-05T05:02:34Z</time>
      </trkpt>
      <trkpt lat="42.49667" lon="2.74618">
        <ele>151.06</ele>
        <time>2014-06-05T05:02:50Z</time>
      </trkpt>
      <trkpt lat="42.49615" lon="2.74504">
        <ele>149.62</ele>
        <time>2014-06-05T05:03:08Z</time>
      </trkpt>
      <trkpt lat="42.49565" lon="2.74402">
        <ele>149.62</ele>
        <time>2014-06-05T05:03:24Z</time>
      </trkpt>
      <trkpt lat="42.49513" lon="2.74314">
        <ele>148.66</ele>
        <time>2014-06-05T05:03:39Z</time>
      </trkpt>
      <trkpt lat="42.49493" lon="2.74274">
        <ele>150.1</ele>
        <time>2014-06-05T05:03:46Z</time>
      </trkpt>
      <trkpt lat="42.49467" lon="2.74241">
        <ele>150.58</ele>
        <time>2014-06-05T05:03:53Z</time>
      </trkpt>
      <trkpt lat="42.49459" lon="2.74219">
        <ele>152.03</ele>
        <time>2014-06-05T05:03:57Z</time>
      </trkpt>
      <trkpt lat="42.49471" lon="2.74126">
        <ele>154.43</ele>
        <time>2014-06-05T05:04:10Z</time>
      </trkpt>
      <trkpt lat="42.49477" lon="2.74019">
        <ele>153.47</ele>
        <time>2014-06-05T05:04:26Z</time>
      </trkpt>
      <trkpt lat="42.49476" lon="2.7391">
        <ele>154.91</ele>
        <time>2014-06-05T05:04:43Z</time>
      </trkpt>
      <trkpt lat="42.49476" lon="2.73897">
        <ele>155.39</ele>
        <time>2014-06-05T05:04:45Z</time>
      </trkpt>
      <trkpt lat="42.49474" lon="2.73824">
        <ele>161.16</ele>
        <time>2014-06-05T05:04:57Z</time>
      </trkpt>
      <trkpt lat="42.49473" lon="2.73751">
        <ele>164.04</ele>
        <time>2014-06-05T05:05:08Z</time>
      </trkpt>
      <trkpt lat="42.49473" lon="2.73712">
        <ele>163.56</ele>
        <time>2014-06-05T05:05:14Z</time>
      </trkpt>
      <trkpt lat="42.49473" lon="2.73685">
        <ele>164.04</ele>
        <time>2014-06-05T05:05:18Z</time>
      </trkpt>
      <trkpt lat="42.49471" lon="2.73549">
        <ele>161.16</ele>
        <time>2014-06-05T05:05:37Z</time>
      </trkpt>
      <trkpt lat="42.49471" lon="2.73541">
        <ele>161.16</ele>
        <time>2014-06-05T05:05:38Z</time>
      </trkpt>
      <trkpt lat="42.49482" lon="2.73428">
        <ele>162.6</ele>
        <time>2014-06-05T05:05:55Z</time>
      </trkpt>
      <trkpt lat="42.49495" lon="2.73323">
        <ele>163.08</ele>
        <time>2014-06-05T05:06:10Z</time>
      </trkpt>
      <trkpt lat="42.49508" lon="2.73212">
        <ele>163.56</ele>
        <time>2014-06-05T05:06:25Z</time>
      </trkpt>
      <trkpt lat="42.49529" lon="2.73066">
        <ele>160.2</ele>
        <time>2014-06-05T05:06:44Z</time>
      </trkpt>
      <trkpt lat="42.49535" lon="2.72942">
        <ele>159.72</ele>
        <time>2014-06-05T05:07:00Z</time>
      </trkpt>
      <trkpt lat="42.49514" lon="2.72766">
        <ele>159.24</ele>
        <time>2014-06-05T05:07:24Z</time>
      </trkpt>
      <trkpt lat="42.49508" lon="2.72693">
        <ele>160.2</ele>
        <time>2014-06-05T05:07:34Z</time>
      </trkpt>
      <trkpt lat="42.49463" lon="2.72582">
        <ele>161.16</ele>
        <time>2014-06-05T05:07:52Z</time>
      </trkpt>
      <trkpt lat="42.49455" lon="2.72564">
        <ele>161.64</ele>
        <time>2014-06-05T05:07:55Z</time>
      </trkpt>
      <trkpt lat="42.49439" lon="2.72508">
        <ele>162.6</ele>
        <time>2014-06-05T05:08:04Z</time>
      </trkpt>
      <trkpt lat="42.49434" lon="2.72479">
        <ele>162.12</ele>
        <time>2014-06-05T05:08:08Z</time>
      </trkpt>
      <trkpt lat="42.49417" lon="2.72353">
        <ele>161.16</ele>
        <time>2014-06-05T05:08:25Z</time>
      </trkpt>
      <trkpt lat="42.49399" lon="2.72288">
        <ele>160.2</ele>
        <time>2014-06-05T05:08:34Z</time>
      </trkpt>
      <trkpt lat="42.49399" lon="2.72255">
        <ele>160.2</ele>
        <time>2014-06-05T05:08:38Z</time>
      </trkpt>
      <trkpt lat="42.49404" lon="2.72206">
        <ele>159.72</ele>
        <time>2014-06-05T05:08:44Z</time>
      </trkpt>
      <trkpt lat="42.49393" lon="2.72078">
        <ele>161.64</ele>
        <time>2014-06-05T05:09:01Z</time>
      </trkpt>
      <trkpt lat="42.49397" lon="2.72035">
        <ele>163.08</ele>
        <time>2014-06-05T05:09:08Z</time>
      </trkpt>
      <trkpt lat="42.4942" lon="2.71935">
        <ele>166.93</ele>
        <time>2014-06-05T05:09:24Z</time>
      </trkpt>
      <trkpt lat="42.49449" lon="2.71834">
        <ele>166.93</ele>
        <time>2014-06-05T05:09:39Z</time>
      </trkpt>
      <trkpt lat="42.49469" lon="2.71817">
        <ele>167.41</ele>
        <time>2014-06-05T05:09:44Z</time>
      </trkpt>
      <trkpt lat="42.49526" lon="2.71815">
        <ele>166.45</ele>
        <time>2014-06-05T05:09:55Z</time>
      </trkpt>
      <trkpt lat="42.49563" lon="2.71819">
        <ele>166.93</ele>
        <time>2014-06-05T05:10:02Z</time>
      </trkpt>
      <trkpt lat="42.49621" lon="2.71754">
        <ele>168.37</ele>
        <time>2014-06-05T05:10:16Z</time>
      </trkpt>
      <trkpt lat="42.49656" lon="2.71686">
        <ele>169.81</ele>
        <time>2014-06-05T05:10:28Z</time>
      </trkpt>
      <trkpt lat="42.4967" lon="2.71669">
        <ele>169.81</ele>
        <time>2014-06-05T05:10:32Z</time>
      </trkpt>
      <trkpt lat="42.49741" lon="2.71623">
        <ele>173.17</ele>
        <time>2014-06-05T05:10:48Z</time>
      </trkpt>
      <trkpt lat="42.49752" lon="2.71618">
        <ele>173.66</ele>
        <time>2014-06-05T05:10:50Z</time>
      </trkpt>
      <trkpt lat="42.49772" lon="2.71603">
        <ele>173.66</ele>
        <time>2014-06-05T05:10:54Z</time>
      </trkpt>
      <trkpt lat="42.49776" lon="2.7156">
        <ele>174.62</ele>
        <time>2014-06-05T05:11:02Z</time>
      </trkpt>
      <trkpt lat="42.49737" lon="2.71544">
        <ele>176.54</ele>
        <time>2014-06-05T05:11:14Z</time>
      </trkpt>
      <trkpt lat="42.49725" lon="2.71516">
        <ele>179.42</ele>
        <time>2014-06-05T05:11:22Z</time>
      </trkpt>
      <trkpt lat="42.49711" lon="2.71474">
        <ele>178.94</ele>
        <time>2014-06-05T05:11:32Z</time>
      </trkpt>
      <trkpt lat="42.49708" lon="2.7147">
        <ele>178.46</ele>
        <time>2014-06-05T05:11:33Z</time>
      </trkpt>
      <trkpt lat="42.49697" lon="2.71438">
        <ele>176.54</ele>
        <time>2014-06-05T05:11:39Z</time>
      </trkpt>
      <trkpt lat="42.49722" lon="2.7135">
        <ele>175.58</ele>
        <time>2014-06-05T05:11:55Z</time>
      </trkpt>
      <trkpt lat="42.49755" lon="2.71262">
        <ele>177.98</ele>
        <time>2014-06-05T05:12:12Z</time>
      </trkpt>
      <trkpt lat="42.49779" lon="2.71246">
        <ele>182.79</ele>
        <time>2014-06-05T05:12:19Z</time>
      </trkpt>
      <trkpt lat="42.49793" lon="2.71232">
        <ele>183.27</ele>
        <time>2014-06-05T05:12:23Z</time>
      </trkpt>
      <trkpt lat="42.49821" lon="2.71139">
        <ele>180.38</ele>
        <time>2014-06-05T05:12:37Z</time>
      </trkpt>
      <trkpt lat="42.49827" lon="2.71108">
        <ele>180.38</ele>
        <time>2014-06-05T05:12:41Z</time>
      </trkpt>
      <trkpt lat="42.49823" lon="2.71018">
        <ele>178.94</ele>
        <time>2014-06-05T05:12:53Z</time>
      </trkpt>
      <trkpt lat="42.49835" lon="2.70958">
        <ele>181.83</ele>
        <time>2014-06-05T05:13:03Z</time>
      </trkpt>
      <trkpt lat="42.49845" lon="2.70928">
        <ele>182.79</ele>
        <time>2014-06-05T05:13:08Z</time>
      </trkpt>
      <trkpt lat="42.49834" lon="2.709">
        <ele>182.31</ele>
        <time>2014-06-05T05:13:13Z</time>
      </trkpt>
      <trkpt lat="42.49826" lon="2.70888">
        <ele>181.83</ele>
        <time>2014-06-05T05:13:15Z</time>
      </trkpt>
      <trkpt lat="42.49812" lon="2.70793">
        <ele>179.42</ele>
        <time>2014-06-05T05:13:26Z</time>
      </trkpt>
      <trkpt lat="42.49802" lon="2.70646">
        <ele>173.17</ele>
        <time>2014-06-05T05:13:40Z</time>
      </trkpt>
      <trkpt lat="42.49783" lon="2.70529">
        <ele>170.29</ele>
        <time>2014-06-05T05:13:53Z</time>
      </trkpt>
      <trkpt lat="42.49772" lon="2.70507">
        <ele>170.29</ele>
        <time>2014-06-05T05:13:56Z</time>
      </trkpt>
      <trkpt lat="42.49755" lon="2.70482">
        <ele>169.81</ele>
        <time>2014-06-05T05:14:00Z</time>
      </trkpt>
      <trkpt lat="42.49734" lon="2.70457">
        <ele>170.29</ele>
        <time>2014-06-05T05:14:05Z</time>
      </trkpt>
      <trkpt lat="42.49726" lon="2.7045">
        <ele>170.77</ele>
        <time>2014-06-05T05:14:07Z</time>
      </trkpt>
      <trkpt lat="42.49683" lon="2.7043">
        <ele>173.17</ele>
        <time>2014-06-05T05:14:17Z</time>
      </trkpt>
      <trkpt lat="42.49625" lon="2.70409">
        <ele>175.58</ele>
        <time>2014-06-05T05:14:32Z</time>
      </trkpt>
      <trkpt lat="42.4957" lon="2.70398">
        <ele>179.42</ele>
        <time>2014-06-05T05:14:47Z</time>
      </trkpt>
      <trkpt lat="42.49526" lon="2.70368">
        <ele>181.83</ele>
        <time>2014-06-05T05:15:00Z</time>
      </trkpt>
      <trkpt lat="42.49471" lon="2.70365">
        <ele>184.23</ele>
        <time>2014-06-05T05:15:14Z</time>
      </trkpt>
      <trkpt lat="42.49415" lon="2.70347">
        <ele>186.15</ele>
        <time>2014-06-05T05:15:30Z</time>
      </trkpt>
      <trkpt lat="42.49393" lon="2.7031">
        <ele>186.63</ele>
        <time>2014-06-05T05:15:41Z</time>
      </trkpt>
      <trkpt lat="42.49401" lon="2.70282">
        <ele>189.04</ele>
        <time>2014-06-05T05:15:47Z</time>
      </trkpt>
      <trkpt lat="42.49428" lon="2.70187">
        <ele>188.56</ele>
        <time>2014-06-05T05:16:04Z</time>
      </trkpt>
      <trkpt lat="42.49455" lon="2.70088">
        <ele>189.04</ele>
        <time>2014-06-05T05:16:22Z</time>
      </trkpt>
      <trkpt lat="42.49462" lon="2.70072">
        <ele>189.04</ele>
        <time>2014-06-05T05:16:25Z</time>
      </trkpt>
      <trkpt lat="42.49517" lon="2.6999">
        <ele>191.44</ele>
        <time>2014-06-05T05:16:44Z</time>
      </trkpt>
      <trkpt lat="42.49547" lon="2.69915">
        <ele>193.84</ele>
        <time>2014-06-05T05:16:58Z</time>
      </trkpt>
      <trkpt lat="42.49601" lon="2.69852">
        <ele>200.57</ele>
        <time>2014-06-05T05:17:14Z</time>
      </trkpt>
      <trkpt lat="42.49655" lon="2.69792">
        <ele>200.09</ele>
        <time>2014-06-05T05:17:30Z</time>
      </trkpt>
      <trkpt lat="42.49661" lon="2.69784">
        <ele>201.05</ele>
        <time>2014-06-05T05:17:32Z</time>
      </trkpt>
      <trkpt lat="42.49681" lon="2.69732">
        <ele>201.53</ele>
        <time>2014-06-05T05:17:41Z</time>
      </trkpt>
      <trkpt lat="42.49693" lon="2.69713">
        <ele>201.05</ele>
        <time>2014-06-05T05:17:45Z</time>
      </trkpt>
      <trkpt lat="42.49723" lon="2.69687">
        <ele>200.57</ele>
        <time>2014-06-05T05:17:53Z</time>
      </trkpt>
      <trkpt lat="42.49747" lon="2.69651">
        <ele>200.57</ele>
        <time>2014-06-05T05:18:01Z</time>
      </trkpt>
      <trkpt lat="42.49754" lon="2.69636">
        <ele>200.09</ele>
        <time>2014-06-05T05:18:04Z</time>
      </trkpt>
      <trkpt lat="42.49765" lon="2.69575">
        <ele>201.53</ele>
        <time>2014-06-05T05:18:14Z</time>
      </trkpt>
      <trkpt lat="42.4975" lon="2.69535">
        <ele>201.53</ele>
        <time>2014-06-05T05:18:22Z</time>
      </trkpt>
      <trkpt lat="42.49707" lon="2.69511">
        <ele>201.53</ele>
        <time>2014-06-05T05:18:33Z</time>
      </trkpt>
      <trkpt lat="42.49657" lon="2.69484">
        <ele>199.61</ele>
        <time>2014-06-05T05:18:47Z</time>
      </trkpt>
      <trkpt lat="42.49653" lon="2.69485">
        <ele>199.61</ele>
        <time>2014-06-05T05:18:48Z</time>
      </trkpt>
      <trkpt lat="42.49627" lon="2.69473">
        <ele>200.57</ele>
        <time>2014-06-05T05:18:55Z</time>
      </trkpt>
      <trkpt lat="42.4961" lon="2.69457">
        <ele>200.57</ele>
        <time>2014-06-05T05:19:00Z</time>
      </trkpt>
      <trkpt lat="42.49602" lon="2.69453">
        <ele>201.05</ele>
        <time>2014-06-05T05:19:02Z</time>
      </trkpt>
      <trkpt lat="42.49537" lon="2.69424">
        <ele>203.94</ele>
        <time>2014-06-05T05:19:19Z</time>
      </trkpt>
      <trkpt lat="42.4953" lon="2.6942">
        <ele>203.94</ele>
        <time>2014-06-05T05:19:21Z</time>
      </trkpt>
      <trkpt lat="42.49514" lon="2.69376">
        <ele>202.49</ele>
        <time>2014-06-05T05:19:30Z</time>
      </trkpt>
      <trkpt lat="42.49515" lon="2.6937">
        <ele>202.49</ele>
        <time>2014-06-05T05:19:31Z</time>
      </trkpt>
      <trkpt lat="42.49523" lon="2.69333">
        <ele>202.98</ele>
        <time>2014-06-05T05:19:37Z</time>
      </trkpt>
      <trkpt lat="42.49526" lon="2.69315">
        <ele>202.98</ele>
        <time>2014-06-05T05:19:40Z</time>
      </trkpt>
      <trkpt lat="42.49525" lon="2.69265">
        <ele>202.49</ele>
        <time>2014-06-05T05:19:48Z</time>
      </trkpt>
      <trkpt lat="42.49535" lon="2.69229">
        <ele>202.01</ele>
        <time>2014-06-05T05:19:54Z</time>
      </trkpt>
      <trkpt lat="42.49557" lon="2.69206">
        <ele>202.98</ele>
        <time>2014-06-05T05:20:00Z</time>
      </trkpt>
      <trkpt lat="42.49592" lon="2.6913">
        <ele>204.9</ele>
        <time>2014-06-05T05:20:14Z</time>
      </trkpt>
      <trkpt lat="42.49601" lon="2.69115">
        <ele>204.9</ele>
        <time>2014-06-05T05:20:17Z</time>
      </trkpt>
      <trkpt lat="42.49617" lon="2.69102">
        <ele>205.38</ele>
        <time>2014-06-05T05:20:21Z</time>
      </trkpt>
      <trkpt lat="42.49677" lon="2.69072">
        <ele>205.86</ele>
        <time>2014-06-05T05:20:37Z</time>
      </trkpt>
      <trkpt lat="42.49691" lon="2.6906">
        <ele>208.74</ele>
        <time>2014-06-05T05:20:48Z</time>
      </trkpt>
      <trkpt lat="42.49692" lon="2.69059">
        <ele>211.15</ele>
        <time>2014-06-05T05:20:57Z</time>
      </trkpt>
      <trkpt lat="42.49704" lon="2.69037">
        <ele>216.43</ele>
        <time>2014-06-05T05:21:04Z</time>
      </trkpt>
      <trkpt lat="42.49713" lon="2.69002">
        <ele>220.76</ele>
        <time>2014-06-05T05:21:12Z</time>
      </trkpt>
      <trkpt lat="42.49717" lon="2.68978">
        <ele>221.24</ele>
        <time>2014-06-05T05:21:16Z</time>
      </trkpt>
      <trkpt lat="42.49721" lon="2.68937">
        <ele>221.72</ele>
        <time>2014-06-05T05:21:23Z</time>
      </trkpt>
      <trkpt lat="42.49721" lon="2.68911">
        <ele>221.72</ele>
        <time>2014-06-05T05:21:27Z</time>
      </trkpt>
      <trkpt lat="42.49716" lon="2.68789">
        <ele>219.32</ele>
        <time>2014-06-05T05:21:45Z</time>
      </trkpt>
      <trkpt lat="42.49697" lon="2.68753">
        <ele>215.95</ele>
        <time>2014-06-05T05:21:54Z</time>
      </trkpt>
      <trkpt lat="42.49688" lon="2.68751">
        <ele>211.63</ele>
        <time>2014-06-05T05:22:04Z</time>
      </trkpt>
      <trkpt lat="42.49688" lon="2.6875">
        <ele>208.74</ele>
        <time>2014-06-05T05:22:31Z</time>
      </trkpt>
      <trkpt lat="42.49668" lon="2.68755">
        <ele>206.34</ele>
        <time>2014-06-05T05:22:44Z</time>
      </trkpt>
      <trkpt lat="42.49645" lon="2.68797">
        <ele>210.19</ele>
        <time>2014-06-05T05:22:54Z</time>
      </trkpt>
      <trkpt lat="42.49626" lon="2.68866">
        <ele>218.84</ele>
        <time>2014-06-05T05:23:08Z</time>
      </trkpt>
      <trkpt lat="42.49601" lon="2.6892">
        <ele>220.76</ele>
        <time>2014-06-05T05:23:21Z</time>
      </trkpt>
      <trkpt lat="42.49585" lon="2.68959">
        <ele>227.01</ele>
        <time>2014-06-05T05:23:33Z</time>
      </trkpt>
      <trkpt lat="42.4956" lon="2.68983">
        <ele>228.45</ele>
        <time>2014-06-05T05:23:45Z</time>
      </trkpt>
      <trkpt lat="42.49525" lon="2.69003">
        <ele>231.33</ele>
        <time>2014-06-05T05:23:59Z</time>
      </trkpt>
      <trkpt lat="42.4951" lon="2.69035">
        <ele>236.14</ele>
        <time>2014-06-05T05:24:11Z</time>
      </trkpt>
      <trkpt lat="42.49508" lon="2.69067">
        <ele>241.43</ele>
        <time>2014-06-05T05:24:21Z</time>
      </trkpt>
      <trkpt lat="42.49497" lon="2.69102">
        <ele>244.31</ele>
        <time>2014-06-05T05:24:33Z</time>
      </trkpt>
      <trkpt lat="42.49474" lon="2.6911">
        <ele>244.31</ele>
        <time>2014-06-05T05:24:43Z</time>
      </trkpt>
      <trkpt lat="42.49455" lon="2.69134">
        <ele>247.2</ele>
        <time>2014-06-05T05:24:54Z</time>
      </trkpt>
      <trkpt lat="42.49422" lon="2.69158">
        <ele>249.6</ele>
        <time>2014-06-05T05:25:10Z</time>
      </trkpt>
      <trkpt lat="42.494" lon="2.69174">
        <ele>252</ele>
        <time>2014-06-05T05:25:21Z</time>
      </trkpt>
      <trkpt lat="42.49393" lon="2.69188">
        <ele>253.93</ele>
        <time>2014-06-05T05:25:26Z</time>
      </trkpt>
      <trkpt lat="42.49392" lon="2.69233">
        <ele>260.65</ele>
        <time>2014-06-05T05:25:39Z</time>
      </trkpt>
      <trkpt lat="42.49376" lon="2.69262">
        <ele>265.94</ele>
        <time>2014-06-05T05:25:50Z</time>
      </trkpt>
      <trkpt lat="42.49358" lon="2.69272">
        <ele>264.5</ele>
        <time>2014-06-05T05:25:57Z</time>
      </trkpt>
      <trkpt lat="42.49356" lon="2.69301">
        <ele>267.38</ele>
        <time>2014-06-05T05:26:07Z</time>
      </trkpt>
      <trkpt lat="42.49364" lon="2.69346">
        <ele>267.38</ele>
        <time>2014-06-05T05:26:21Z</time>
      </trkpt>
      <trkpt lat="42.49371" lon="2.69374">
        <ele>270.27</ele>
        <time>2014-06-05T05:26:30Z</time>
      </trkpt>
      <trkpt lat="42.49373" lon="2.69391">
        <ele>270.75</ele>
        <time>2014-06-05T05:26:35Z</time>
      </trkpt>
      <trkpt lat="42.49363" lon="2.69441">
        <ele>272.67</ele>
        <time>2014-06-05T05:26:51Z</time>
      </trkpt>
      <trkpt lat="42.49362" lon="2.6945">
        <ele>274.11</ele>
        <time>2014-06-05T05:26:54Z</time>
      </trkpt>
      <trkpt lat="42.49361" lon="2.69464">
        <ele>276.04</ele>
        <time>2014-06-05T05:26:59Z</time>
      </trkpt>
      <trkpt lat="42.4936" lon="2.69473">
        <ele>277.48</ele>
        <time>2014-06-05T05:27:02Z</time>
      </trkpt>
      <trkpt lat="42.49354" lon="2.69507">
        <ele>276.52</ele>
        <time>2014-06-05T05:27:12Z</time>
      </trkpt>
      <trkpt lat="42.49343" lon="2.69551">
        <ele>276.52</ele>
        <time>2014-06-05T05:27:26Z</time>
      </trkpt>
      <trkpt lat="42.49338" lon="2.69591">
        <ele>278.92</ele>
        <time>2014-06-05T05:27:39Z</time>
      </trkpt>
      <trkpt lat="42.49337" lon="2.69637">
        <ele>280.36</ele>
        <time>2014-06-05T05:27:53Z</time>
      </trkpt>
      <trkpt lat="42.49319" lon="2.69659">
        <ele>278.44</ele>
        <time>2014-06-05T05:28:04Z</time>
      </trkpt>
      <trkpt lat="42.49304" lon="2.69635">
        <ele>273.63</ele>
        <time>2014-06-05T05:28:16Z</time>
      </trkpt>
      <trkpt lat="42.49299" lon="2.69609">
        <ele>272.19</ele>
        <time>2014-06-05T05:28:26Z</time>
      </trkpt>
      <trkpt lat="42.49303" lon="2.69567">
        <ele>271.71</ele>
        <time>2014-06-05T05:28:40Z</time>
      </trkpt>
      <trkpt lat="42.49293" lon="2.6952">
        <ele>269.79</ele>
        <time>2014-06-05T05:28:55Z</time>
      </trkpt>
      <trkpt lat="42.4927" lon="2.69497">
        <ele>269.31</ele>
        <time>2014-06-05T05:29:07Z</time>
      </trkpt>
      <trkpt lat="42.49256" lon="2.69456">
        <ele>272.67</ele>
        <time>2014-06-05T05:29:22Z</time>
      </trkpt>
      <trkpt lat="42.49259" lon="2.6942">
        <ele>275.07</ele>
        <time>2014-06-05T05:29:34Z</time>
      </trkpt>
      <trkpt lat="42.49263" lon="2.69379">
        <ele>276.52</ele>
        <time>2014-06-05T05:29:47Z</time>
      </trkpt>
      <trkpt lat="42.4925" lon="2.69341">
        <ele>277</ele>
        <time>2014-06-05T05:30:00Z</time>
      </trkpt>
      <trkpt lat="42.49226" lon="2.69303">
        <ele>279.88</ele>
        <time>2014-06-05T05:30:16Z</time>
      </trkpt>
      <trkpt lat="42.49208" lon="2.69272">
        <ele>283.25</ele>
        <time>2014-06-05T05:30:29Z</time>
      </trkpt>
      <trkpt lat="42.49194" lon="2.69238">
        <ele>287.09</ele>
        <time>2014-06-05T05:30:42Z</time>
      </trkpt>
      <trkpt lat="42.49182" lon="2.69192">
        <ele>289.97</ele>
        <time>2014-06-05T05:30:57Z</time>
      </trkpt>
      <trkpt lat="42.49154" lon="2.69157">
        <ele>290.46</ele>
        <time>2014-06-05T05:31:13Z</time>
      </trkpt>
      <trkpt lat="42.49127" lon="2.69127">
        <ele>292.86</ele>
        <time>2014-06-05T05:31:28Z</time>
      </trkpt>
      <trkpt lat="42.49105" lon="2.69082">
        <ele>295.74</ele>
        <time>2014-06-05T05:31:46Z</time>
      </trkpt>
      <trkpt lat="42.49088" lon="2.69039">
        <ele>298.63</ele>
        <time>2014-06-05T05:32:02Z</time>
      </trkpt>
      <trkpt lat="42.49077" lon="2.68997">
        <ele>301.03</ele>
        <time>2014-06-05T05:32:17Z</time>
      </trkpt>
      <trkpt lat="42.49067" lon="2.6895">
        <ele>303.91</ele>
        <time>2014-06-05T05:32:33Z</time>
      </trkpt>
      <trkpt lat="42.49052" lon="2.68916">
        <ele>304.39</ele>
        <time>2014-06-05T05:32:46Z</time>
      </trkpt>
      <trkpt lat="42.49033" lon="2.68895">
        <ele>311.12</ele>
        <time>2014-06-05T05:32:58Z</time>
      </trkpt>
      <trkpt lat="42.49013" lon="2.68861">
        <ele>320.74</ele>
        <time>2014-06-05T05:33:12Z</time>
      </trkpt>
      <trkpt lat="42.48991" lon="2.68829">
        <ele>323.14</ele>
        <time>2014-06-05T05:33:26Z</time>
      </trkpt>
      <trkpt lat="42.48977" lon="2.68798">
        <ele>330.35</ele>
        <time>2014-06-05T05:33:39Z</time>
      </trkpt>
      <trkpt lat="42.48965" lon="2.68755">
        <ele>326.99</ele>
        <time>2014-06-05T05:33:54Z</time>
      </trkpt>
      <trkpt lat="42.48952" lon="2.6871">
        <ele>324.1</ele>
        <time>2014-06-05T05:34:08Z</time>
      </trkpt>
      <trkpt lat="42.48957" lon="2.68662">
        <ele>324.58</ele>
        <time>2014-06-05T05:34:21Z</time>
      </trkpt>
      <trkpt lat="42.48951" lon="2.68617">
        <ele>324.58</ele>
        <time>2014-06-05T05:34:34Z</time>
      </trkpt>
      <trkpt lat="42.48941" lon="2.68567">
        <ele>325.06</ele>
        <time>2014-06-05T05:34:50Z</time>
      </trkpt>
      <trkpt lat="42.48957" lon="2.6854">
        <ele>328.43</ele>
        <time>2014-06-05T05:35:02Z</time>
      </trkpt>
      <trkpt lat="42.48986" lon="2.68542">
        <ele>334.68</ele>
        <time>2014-06-05T05:35:15Z</time>
      </trkpt>
      <trkpt lat="42.49016" lon="2.68553">
        <ele>340.92</ele>
        <time>2014-06-05T05:35:29Z</time>
      </trkpt>
      <trkpt lat="42.49031" lon="2.68595">
        <ele>340.92</ele>
        <time>2014-06-05T05:35:43Z</time>
      </trkpt>
      <trkpt lat="42.49046" lon="2.68659">
        <ele>336.6</ele>
        <time>2014-06-05T05:36:02Z</time>
      </trkpt>
      <trkpt lat="42.49063" lon="2.68697">
        <ele>336.12</ele>
        <time>2014-06-05T05:36:16Z</time>
      </trkpt>
      <trkpt lat="42.49084" lon="2.68682">
        <ele>338.04</ele>
        <time>2014-06-05T05:36:27Z</time>
      </trkpt>
      <trkpt lat="42.49088" lon="2.68646">
        <ele>341.89</ele>
        <time>2014-06-05T05:36:40Z</time>
      </trkpt>
      <trkpt lat="42.49094" lon="2.68601">
        <ele>346.69</ele>
        <time>2014-06-05T05:36:54Z</time>
      </trkpt>
      <trkpt lat="42.49091" lon="2.68561">
        <ele>348.13</ele>
        <time>2014-06-05T05:37:08Z</time>
      </trkpt>
      <trkpt lat="42.49089" lon="2.68556">
        <ele>346.69</ele>
        <time>2014-06-05T05:37:20Z</time>
      </trkpt>
      <trkpt lat="42.49089" lon="2.68556">
        <ele>345.25</ele>
        <time>2014-06-05T05:37:51Z</time>
      </trkpt>
      <trkpt lat="42.49088" lon="2.68555">
        <ele>344.77</ele>
        <time>2014-06-05T05:38:20Z</time>
      </trkpt>
      <trkpt lat="42.49088" lon="2.68554">
        <ele>343.33</ele>
        <time>2014-06-05T05:38:27Z</time>
      </trkpt>
      <trkpt lat="42.49076" lon="2.68529">
        <ele>343.81</ele>
        <time>2014-06-05T05:38:36Z</time>
      </trkpt>
      <trkpt lat="42.49066" lon="2.68506">
        <ele>341.89</ele>
        <time>2014-06-05T05:38:40Z</time>
      </trkpt>
      <trkpt lat="42.49061" lon="2.68484">
        <ele>340.92</ele>
        <time>2014-06-05T05:38:43Z</time>
      </trkpt>
      <trkpt lat="42.4906" lon="2.68438">
        <ele>339.96</ele>
        <time>2014-06-05T05:38:48Z</time>
      </trkpt>
      <trkpt lat="42.49069" lon="2.68397">
        <ele>339</ele>
        <time>2014-06-05T05:38:52Z</time>
      </trkpt>
      <trkpt lat="42.49066" lon="2.68346">
        <ele>337.56</ele>
        <time>2014-06-05T05:38:57Z</time>
      </trkpt>
      <trkpt lat="42.4906" lon="2.68275">
        <ele>334.68</ele>
        <time>2014-06-05T05:39:05Z</time>
      </trkpt>
      <trkpt lat="42.49061" lon="2.68238">
        <ele>333.71</ele>
        <time>2014-06-05T05:39:08Z</time>
      </trkpt>
      <trkpt lat="42.49063" lon="2.6818">
        <ele>330.83</ele>
        <time>2014-06-05T05:39:13Z</time>
      </trkpt>
      <trkpt lat="42.49049" lon="2.68112">
        <ele>328.43</ele>
        <time>2014-06-05T05:39:21Z</time>
      </trkpt>
      <trkpt lat="42.49039" lon="2.6806">
        <ele>326.02</ele>
        <time>2014-06-05T05:39:26Z</time>
      </trkpt>
      <trkpt lat="42.49041" lon="2.68038">
        <ele>325.06</ele>
        <time>2014-06-05T05:39:28Z</time>
      </trkpt>
      <trkpt lat="42.49031" lon="2.67995">
        <ele>323.14</ele>
        <time>2014-06-05T05:39:32Z</time>
      </trkpt>
      <trkpt lat="42.48988" lon="2.67933">
        <ele>319.3</ele>
        <time>2014-06-05T05:39:39Z</time>
      </trkpt>
      <trkpt lat="42.48954" lon="2.67934">
        <ele>316.89</ele>
        <time>2014-06-05T05:39:45Z</time>
      </trkpt>
      <trkpt lat="42.48928" lon="2.67982">
        <ele>317.37</ele>
        <time>2014-06-05T05:39:51Z</time>
      </trkpt>
      <trkpt lat="42.4891" lon="2.68001">
        <ele>317.37</ele>
        <time>2014-06-05T05:39:54Z</time>
      </trkpt>
      <trkpt lat="42.48872" lon="2.6799">
        <ele>315.93</ele>
        <time>2014-06-05T05:40:01Z</time>
      </trkpt>
      <trkpt lat="42.4887" lon="2.67972">
        <ele>314.49</ele>
        <time>2014-06-05T05:40:03Z</time>
      </trkpt>
      <trkpt lat="42.48867" lon="2.6792">
        <ele>310.64</ele>
        <time>2014-06-05T05:40:08Z</time>
      </trkpt>
      <trkpt lat="42.48861" lon="2.67875">
        <ele>308.24</ele>
        <time>2014-06-05T05:40:12Z</time>
      </trkpt>
      <trkpt lat="42.48846" lon="2.67811">
        <ele>305.36</ele>
        <time>2014-06-05T05:40:18Z</time>
      </trkpt>
      <trkpt lat="42.48823" lon="2.6778">
        <ele>303.43</ele>
        <time>2014-06-05T05:40:22Z</time>
      </trkpt>
      <trkpt lat="42.48805" lon="2.67728">
        <ele>297.18</ele>
        <time>2014-06-05T05:40:29Z</time>
      </trkpt>
      <trkpt lat="42.48815" lon="2.67712">
        <ele>296.7</ele>
        <time>2014-06-05T05:40:31Z</time>
      </trkpt>
      <trkpt lat="42.48844" lon="2.67654">
        <ele>294.3</ele>
        <time>2014-06-05T05:40:37Z</time>
      </trkpt>
      <trkpt lat="42.48859" lon="2.67612">
        <ele>292.86</ele>
        <time>2014-06-05T05:40:41Z</time>
      </trkpt>
      <trkpt lat="42.48853" lon="2.6755">
        <ele>289.97</ele>
        <time>2014-06-05T05:40:48Z</time>
      </trkpt>
      <trkpt lat="42.48811" lon="2.67543">
        <ele>289.97</ele>
        <time>2014-06-05T05:40:54Z</time>
      </trkpt>
      <trkpt lat="42.48803" lon="2.67539">
        <ele>289.97</ele>
        <time>2014-06-05T05:40:55Z</time>
      </trkpt>
      <trkpt lat="42.48756" lon="2.67509">
        <ele>291.42</ele>
        <time>2014-06-05T05:41:01Z</time>
      </trkpt>
      <trkpt lat="42.48733" lon="2.67502">
        <ele>291.9</ele>
        <time>2014-06-05T05:41:04Z</time>
      </trkpt>
      <trkpt lat="42.48706" lon="2.67463">
        <ele>289.01</ele>
        <time>2014-06-05T05:41:11Z</time>
      </trkpt>
      <trkpt lat="42.48703" lon="2.67425">
        <ele>286.13</ele>
        <time>2014-06-05T05:41:15Z</time>
      </trkpt>
      <trkpt lat="42.48671" lon="2.67386">
        <ele>281.8</ele>
        <time>2014-06-05T05:41:21Z</time>
      </trkpt>
      <trkpt lat="42.48651" lon="2.67407">
        <ele>281.32</ele>
        <time>2014-06-05T05:41:24Z</time>
      </trkpt>
      <trkpt lat="42.48597" lon="2.67442">
        <ele>278.44</ele>
        <time>2014-06-05T05:41:32Z</time>
      </trkpt>
      <trkpt lat="42.48544" lon="2.6744">
        <ele>274.59</ele>
        <time>2014-06-05T05:41:38Z</time>
      </trkpt>
      <trkpt lat="42.48494" lon="2.67408">
        <ele>266.42</ele>
        <time>2014-06-05T05:41:46Z</time>
      </trkpt>
      <trkpt lat="42.48478" lon="2.67365">
        <ele>264.02</ele>
        <time>2014-06-05T05:41:51Z</time>
      </trkpt>
      <trkpt lat="42.48439" lon="2.6722">
        <ele>255.85</ele>
        <time>2014-06-05T05:42:05Z</time>
      </trkpt>
      <trkpt lat="42.48377" lon="2.67124">
        <ele>250.56</ele>
        <time>2014-06-05T05:42:15Z</time>
      </trkpt>
      <trkpt lat="42.48343" lon="2.67017">
        <ele>244.79</ele>
        <time>2014-06-05T05:42:24Z</time>
      </trkpt>
      <trkpt lat="42.48342" lon="2.66992">
        <ele>243.83</ele>
        <time>2014-06-05T05:42:26Z</time>
      </trkpt>
      <trkpt lat="42.48309" lon="2.66941">
        <ele>239.99</ele>
        <time>2014-06-05T05:42:33Z</time>
      </trkpt>
      <trkpt lat="42.48286" lon="2.66943">
        <ele>238.06</ele>
        <time>2014-06-05T05:42:36Z</time>
      </trkpt>
      <trkpt lat="42.48253" lon="2.6696">
        <ele>236.14</ele>
        <time>2014-06-05T05:42:40Z</time>
      </trkpt>
      <trkpt lat="42.48222" lon="2.66987">
        <ele>234.7</ele>
        <time>2014-06-05T05:42:44Z</time>
      </trkpt>
      <trkpt lat="42.48163" lon="2.66974">
        <ele>230.85</ele>
        <time>2014-06-05T05:42:51Z</time>
      </trkpt>
      <trkpt lat="42.48156" lon="2.66966">
        <ele>230.37</ele>
        <time>2014-06-05T05:42:52Z</time>
      </trkpt>
      <trkpt lat="42.48133" lon="2.66943">
        <ele>229.89</ele>
        <time>2014-06-05T05:42:55Z</time>
      </trkpt>
      <trkpt lat="42.48117" lon="2.66932">
        <ele>230.37</ele>
        <time>2014-06-05T05:42:57Z</time>
      </trkpt>
      <trkpt lat="42.48044" lon="2.6696">
        <ele>229.89</ele>
        <time>2014-06-05T05:43:05Z</time>
      </trkpt>
      <trkpt lat="42.47971" lon="2.66988">
        <ele>226.53</ele>
        <time>2014-06-05T05:43:13Z</time>
      </trkpt>
      <trkpt lat="42.47898" lon="2.66997">
        <ele>225.09</ele>
        <time>2014-06-05T05:43:22Z</time>
      </trkpt>
      <trkpt lat="42.47875" lon="2.66999">
        <ele>225.09</ele>
        <time>2014-06-05T05:43:25Z</time>
      </trkpt>
      <trkpt lat="42.47814" lon="2.67">
        <ele>225.57</ele>
        <time>2014-06-05T05:43:34Z</time>
      </trkpt>
      <trkpt lat="42.47788" lon="2.67017">
        <ele>231.33</ele>
        <time>2014-06-05T05:43:39Z</time>
      </trkpt>
      <trkpt lat="42.47736" lon="2.67107">
        <ele>241.43</ele>
        <time>2014-06-05T05:43:54Z</time>
      </trkpt>
      <trkpt lat="42.47695" lon="2.67168">
        <ele>245.27</ele>
        <time>2014-06-05T05:44:06Z</time>
      </trkpt>
      <trkpt lat="42.47643" lon="2.67204">
        <ele>247.68</ele>
        <time>2014-06-05T05:44:22Z</time>
      </trkpt>
      <trkpt lat="42.47597" lon="2.67229">
        <ele>244.79</ele>
        <time>2014-06-05T05:44:35Z</time>
      </trkpt>
      <trkpt lat="42.47546" lon="2.67263">
        <ele>242.87</ele>
        <time>2014-06-05T05:44:50Z</time>
      </trkpt>
      <trkpt lat="42.47512" lon="2.67277">
        <ele>242.87</ele>
        <time>2014-06-05T05:45:00Z</time>
      </trkpt>
      <trkpt lat="42.47491" lon="2.67252">
        <ele>242.39</ele>
        <time>2014-06-05T05:45:07Z</time>
      </trkpt>
      <trkpt lat="42.47466" lon="2.67147">
        <ele>237.1</ele>
        <time>2014-06-05T05:45:22Z</time>
      </trkpt>
      <trkpt lat="42.47452" lon="2.67046">
        <ele>233.74</ele>
        <time>2014-06-05T05:45:33Z</time>
      </trkpt>
      <trkpt lat="42.47464" lon="2.66996">
        <ele>231.33</ele>
        <time>2014-06-05T05:45:38Z</time>
      </trkpt>
      <trkpt lat="42.47514" lon="2.66904">
        <ele>228.45</ele>
        <time>2014-06-05T05:45:50Z</time>
      </trkpt>
      <trkpt lat="42.47533" lon="2.66869">
        <ele>228.45</ele>
        <time>2014-06-05T05:45:56Z</time>
      </trkpt>
      <trkpt lat="42.47542" lon="2.66853">
        <ele>228.45</ele>
        <time>2014-06-05T05:45:59Z</time>
      </trkpt>
      <trkpt lat="42.47559" lon="2.6683">
        <ele>228.45</ele>
        <time>2014-06-05T05:46:04Z</time>
      </trkpt>
      <trkpt lat="42.47574" lon="2.66788">
        <ele>230.37</ele>
        <time>2014-06-05T05:46:11Z</time>
      </trkpt>
      <trkpt lat="42.47603" lon="2.6669">
        <ele>234.22</ele>
        <time>2014-06-05T05:46:26Z</time>
      </trkpt>
      <trkpt lat="42.47609" lon="2.66579">
        <ele>237.58</ele>
        <time>2014-06-05T05:46:42Z</time>
      </trkpt>
      <trkpt lat="42.47604" lon="2.66531">
        <ele>238.54</ele>
        <time>2014-06-05T05:46:49Z</time>
      </trkpt>
      <trkpt lat="42.47566" lon="2.66424">
        <ele>238.54</ele>
        <time>2014-06-05T05:47:07Z</time>
      </trkpt>
      <trkpt lat="42.47555" lon="2.66403">
        <ele>237.58</ele>
        <time>2014-06-05T05:47:11Z</time>
      </trkpt>
      <trkpt lat="42.47521" lon="2.66402">
        <ele>233.26</ele>
        <time>2014-06-05T05:47:18Z</time>
      </trkpt>
      <trkpt lat="42.47489" lon="2.66436">
        <ele>229.89</ele>
        <time>2014-06-05T05:47:26Z</time>
      </trkpt>
      <trkpt lat="42.47469" lon="2.66434">
        <ele>228.45</ele>
        <time>2014-06-05T05:47:31Z</time>
      </trkpt>
      <trkpt lat="42.47416" lon="2.66348">
        <ele>227.97</ele>
        <time>2014-06-05T05:47:48Z</time>
      </trkpt>
      <trkpt lat="42.47393" lon="2.66325">
        <ele>228.93</ele>
        <time>2014-06-05T05:47:54Z</time>
      </trkpt>
      <trkpt lat="42.47351" lon="2.66308">
        <ele>231.33</ele>
        <time>2014-06-05T05:48:03Z</time>
      </trkpt>
      <trkpt lat="42.47284" lon="2.66269">
        <ele>233.26</ele>
        <time>2014-06-05T05:48:18Z</time>
      </trkpt>
      <trkpt lat="42.47214" lon="2.6623">
        <ele>237.1</ele>
        <time>2014-06-05T05:48:34Z</time>
      </trkpt>
      <trkpt lat="42.47195" lon="2.66229">
        <ele>237.58</ele>
        <time>2014-06-05T05:48:38Z</time>
      </trkpt>
      <trkpt lat="42.47115" lon="2.66257">
        <ele>238.06</ele>
        <time>2014-06-05T05:48:56Z</time>
      </trkpt>
      <trkpt lat="42.47053" lon="2.66237">
        <ele>239.02</ele>
        <time>2014-06-05T05:49:09Z</time>
      </trkpt>
      <trkpt lat="42.4697" lon="2.66179">
        <ele>239.51</ele>
        <time>2014-06-05T05:49:27Z</time>
      </trkpt>
      <trkpt lat="42.46915" lon="2.66103">
        <ele>240.47</ele>
        <time>2014-06-05T05:49:44Z</time>
      </trkpt>
      <trkpt lat="42.46875" lon="2.65987">
        <ele>242.39</ele>
        <time>2014-06-05T05:50:03Z</time>
      </trkpt>
      <trkpt lat="42.46861" lon="2.65961">
        <ele>243.35</ele>
        <time>2014-06-05T05:50:08Z</time>
      </trkpt>
      <trkpt lat="42.46842" lon="2.65927">
        <ele>244.79</ele>
        <time>2014-06-05T05:50:15Z</time>
      </trkpt>
      <trkpt lat="42.46837" lon="2.65918">
        <ele>245.27</ele>
        <time>2014-06-05T05:50:17Z</time>
      </trkpt>
      <trkpt lat="42.46825" lon="2.65901">
        <ele>246.23</ele>
        <time>2014-06-05T05:50:21Z</time>
      </trkpt>
      <trkpt lat="42.46811" lon="2.65861">
        <ele>248.64</ele>
        <time>2014-06-05T05:50:28Z</time>
      </trkpt>
      <trkpt lat="42.46784" lon="2.65742">
        <ele>251.04</ele>
        <time>2014-06-05T05:50:48Z</time>
      </trkpt>
      <trkpt lat="42.46761" lon="2.65635">
        <ele>253.44</ele>
        <time>2014-06-05T05:51:07Z</time>
      </trkpt>
      <trkpt lat="42.46736" lon="2.65522">
        <ele>252</ele>
        <time>2014-06-05T05:51:26Z</time>
      </trkpt>
      <trkpt lat="42.46734" lon="2.65515">
        <ele>252</ele>
        <time>2014-06-05T05:51:27Z</time>
      </trkpt>
      <trkpt lat="42.46707" lon="2.65387">
        <ele>252.96</ele>
        <time>2014-06-05T05:51:47Z</time>
      </trkpt>
      <trkpt lat="42.46683" lon="2.65275">
        <ele>257.77</ele>
        <time>2014-06-05T05:52:07Z</time>
      </trkpt>
      <trkpt lat="42.46661" lon="2.65174">
        <ele>262.58</ele>
        <time>2014-06-05T05:52:25Z</time>
      </trkpt>
      <trkpt lat="42.46628" lon="2.65021">
        <ele>261.62</ele>
        <time>2014-06-05T05:52:48Z</time>
      </trkpt>
      <trkpt lat="42.46609" lon="2.64953">
        <ele>262.58</ele>
        <time>2014-06-05T05:52:59Z</time>
      </trkpt>
      <trkpt lat="42.46566" lon="2.64851">
        <ele>265.46</ele>
        <time>2014-06-05T05:53:17Z</time>
      </trkpt>
      <trkpt lat="42.46551" lon="2.64817">
        <ele>265.46</ele>
        <time>2014-06-05T05:53:23Z</time>
      </trkpt>
      <trkpt lat="42.46518" lon="2.64743">
        <ele>267.38</ele>
        <time>2014-06-05T05:53:35Z</time>
      </trkpt>
      <trkpt lat="42.46473" lon="2.64638">
        <ele>267.38</ele>
        <time>2014-06-05T05:53:50Z</time>
      </trkpt>
      <trkpt lat="42.46446" lon="2.64606">
        <ele>267.86</ele>
        <time>2014-06-05T05:53:57Z</time>
      </trkpt>
      <trkpt lat="42.46401" lon="2.64571">
        <ele>267.86</ele>
        <time>2014-06-05T05:54:08Z</time>
      </trkpt>
      <trkpt lat="42.46389" lon="2.6453">
        <ele>267.86</ele>
        <time>2014-06-05T05:54:16Z</time>
      </trkpt>
      <trkpt lat="42.464" lon="2.64426">
        <ele>265.46</ele>
        <time>2014-06-05T05:54:32Z</time>
      </trkpt>
      <trkpt lat="42.46395" lon="2.64397">
        <ele>265.94</ele>
        <time>2014-06-05T05:54:36Z</time>
      </trkpt>
      <trkpt lat="42.46375" lon="2.64306">
        <ele>268.35</ele>
        <time>2014-06-05T05:54:49Z</time>
      </trkpt>
      <trkpt lat="42.4638" lon="2.64278">
        <ele>268.83</ele>
        <time>2014-06-05T05:54:53Z</time>
      </trkpt>
      <trkpt lat="42.46402" lon="2.64194">
        <ele>274.11</ele>
        <time>2014-06-05T05:55:05Z</time>
      </trkpt>
      <trkpt lat="42.46382" lon="2.64103">
        <ele>276.04</ele>
        <time>2014-06-05T05:55:20Z</time>
      </trkpt>
      <trkpt lat="42.46373" lon="2.64073">
        <ele>275.07</ele>
        <time>2014-06-05T05:55:25Z</time>
      </trkpt>
      <trkpt lat="42.46369" lon="2.64056">
        <ele>275.56</ele>
        <time>2014-06-05T05:55:28Z</time>
      </trkpt>
      <trkpt lat="42.46357" lon="2.64024">
        <ele>277.96</ele>
        <time>2014-06-05T05:55:34Z</time>
      </trkpt>
      <trkpt lat="42.46353" lon="2.64003">
        <ele>277.48</ele>
        <time>2014-06-05T05:55:37Z</time>
      </trkpt>
      <trkpt lat="42.46317" lon="2.63902">
        <ele>277</ele>
        <time>2014-06-05T05:55:53Z</time>
      </trkpt>
      <trkpt lat="42.46285" lon="2.63855">
        <ele>276.52</ele>
        <time>2014-06-05T05:56:02Z</time>
      </trkpt>
      <trkpt lat="42.46267" lon="2.6384">
        <ele>277.48</ele>
        <time>2014-06-05T05:56:06Z</time>
      </trkpt>
      <trkpt lat="42.46224" lon="2.63789">
        <ele>281.32</ele>
        <time>2014-06-05T05:56:18Z</time>
      </trkpt>
      <trkpt lat="42.46205" lon="2.63772">
        <ele>282.77</ele>
        <time>2014-06-05T05:56:23Z</time>
      </trkpt>
      <trkpt lat="42.46167" lon="2.63738">
        <ele>282.77</ele>
        <time>2014-06-05T05:56:33Z</time>
      </trkpt>
      <trkpt lat="42.46152" lon="2.63724">
        <ele>283.73</ele>
        <time>2014-06-05T05:56:37Z</time>
      </trkpt>
      <trkpt lat="42.46141" lon="2.63711">
        <ele>283.73</ele>
        <time>2014-06-05T05:56:40Z</time>
      </trkpt>
      <trkpt lat="42.46123" lon="2.63691">
        <ele>283.73</ele>
        <time>2014-06-05T05:56:45Z</time>
      </trkpt>
      <trkpt lat="42.46108" lon="2.63675">
        <ele>283.73</ele>
        <time>2014-06-05T05:56:49Z</time>
      </trkpt>
      <trkpt lat="42.46092" lon="2.63663">
        <ele>283.73</ele>
        <time>2014-06-05T05:56:53Z</time>
      </trkpt>
      <trkpt lat="42.46049" lon="2.63633">
        <ele>283.73</ele>
        <time>2014-06-05T05:57:04Z</time>
      </trkpt>
      <trkpt lat="42.46031" lon="2.63626">
        <ele>284.69</ele>
        <time>2014-06-05T05:57:08Z</time>
      </trkpt>
      <trkpt lat="42.46001" lon="2.6361">
        <ele>284.21</ele>
        <time>2014-06-05T05:57:15Z</time>
      </trkpt>
      <trkpt lat="42.45935" lon="2.63582">
        <ele>286.61</ele>
        <time>2014-06-05T05:57:30Z</time>
      </trkpt>
      <trkpt lat="42.45882" lon="2.63562">
        <ele>286.61</ele>
        <time>2014-06-05T05:57:44Z</time>
      </trkpt>
      <trkpt lat="42.45869" lon="2.63552">
        <ele>287.57</ele>
        <time>2014-06-05T05:57:48Z</time>
      </trkpt>
      <trkpt lat="42.45856" lon="2.63539">
        <ele>289.01</ele>
        <time>2014-06-05T05:57:52Z</time>
      </trkpt>
      <trkpt lat="42.45849" lon="2.63531">
        <ele>289.49</ele>
        <time>2014-06-05T05:57:54Z</time>
      </trkpt>
      <trkpt lat="42.45841" lon="2.63518">
        <ele>289.97</ele>
        <time>2014-06-05T05:57:57Z</time>
      </trkpt>
      <trkpt lat="42.45831" lon="2.63507">
        <ele>289.49</ele>
        <time>2014-06-05T05:58:00Z</time>
      </trkpt>
      <trkpt lat="42.45793" lon="2.63493">
        <ele>289.97</ele>
        <time>2014-06-05T05:58:09Z</time>
      </trkpt>
      <trkpt lat="42.45777" lon="2.63489">
        <ele>291.9</ele>
        <time>2014-06-05T05:58:13Z</time>
      </trkpt>
      <trkpt lat="42.45763" lon="2.6349">
        <ele>293.34</ele>
        <time>2014-06-05T05:58:16Z</time>
      </trkpt>
      <trkpt lat="42.4575" lon="2.63456">
        <ele>295.74</ele>
        <time>2014-06-05T05:58:25Z</time>
      </trkpt>
      <trkpt lat="42.45749" lon="2.63451">
        <ele>295.74</ele>
        <time>2014-06-05T05:58:26Z</time>
      </trkpt>
      <trkpt lat="42.45745" lon="2.63428">
        <ele>296.22</ele>
        <time>2014-06-05T05:58:30Z</time>
      </trkpt>
      <trkpt lat="42.45707" lon="2.6337">
        <ele>298.15</ele>
        <time>2014-06-05T05:58:45Z</time>
      </trkpt>
      <trkpt lat="42.45665" lon="2.63349">
        <ele>302.47</ele>
        <time>2014-06-05T05:58:56Z</time>
      </trkpt>
      <trkpt lat="42.4564" lon="2.63336">
        <ele>306.8</ele>
        <time>2014-06-05T05:59:04Z</time>
      </trkpt>
      <trkpt lat="42.45632" lon="2.63324">
        <ele>307.76</ele>
        <time>2014-06-05T05:59:08Z</time>
      </trkpt>
      <trkpt lat="42.45617" lon="2.6326">
        <ele>308.72</ele>
        <time>2014-06-05T05:59:22Z</time>
      </trkpt>
      <trkpt lat="42.45608" lon="2.63177">
        <ele>303.43</ele>
        <time>2014-06-05T05:59:35Z</time>
      </trkpt>
      <trkpt lat="42.45598" lon="2.63139">
        <ele>302.47</ele>
        <time>2014-06-05T05:59:41Z</time>
      </trkpt>
      <trkpt lat="42.45562" lon="2.63051">
        <ele>301.99</ele>
        <time>2014-06-05T05:59:56Z</time>
      </trkpt>
      <trkpt lat="42.45514" lon="2.62949">
        <ele>301.03</ele>
        <time>2014-06-05T06:00:15Z</time>
      </trkpt>
      <trkpt lat="42.45486" lon="2.62891">
        <ele>301.99</ele>
        <time>2014-06-05T06:00:26Z</time>
      </trkpt>
      <trkpt lat="42.45477" lon="2.62869">
        <ele>301.99</ele>
        <time>2014-06-05T06:00:30Z</time>
      </trkpt>
      <trkpt lat="42.45451" lon="2.62772">
        <ele>303.43</ele>
        <time>2014-06-05T06:00:46Z</time>
      </trkpt>
      <trkpt lat="42.45448" lon="2.62652">
        <ele>304.88</ele>
        <time>2014-06-05T06:01:04Z</time>
      </trkpt>
      <trkpt lat="42.45453" lon="2.6254">
        <ele>306.8</ele>
        <time>2014-06-05T06:01:21Z</time>
      </trkpt>
      <trkpt lat="42.45453" lon="2.62534">
        <ele>306.8</ele>
        <time>2014-06-05T06:01:22Z</time>
      </trkpt>
      <trkpt lat="42.45432" lon="2.62428">
        <ele>306.32</ele>
        <time>2014-06-05T06:01:37Z</time>
      </trkpt>
      <trkpt lat="42.45401" lon="2.62303">
        <ele>303.43</ele>
        <time>2014-06-05T06:01:51Z</time>
      </trkpt>
      <trkpt lat="42.45386" lon="2.62268">
        <ele>302.95</ele>
        <time>2014-06-05T06:01:55Z</time>
      </trkpt>
      <trkpt lat="42.45334" lon="2.62209">
        <ele>301.51</ele>
        <time>2014-06-05T06:02:04Z</time>
      </trkpt>
      <trkpt lat="42.45283" lon="2.62129">
        <ele>300.07</ele>
        <time>2014-06-05T06:02:15Z</time>
      </trkpt>
      <trkpt lat="42.45258" lon="2.62101">
        <ele>301.03</ele>
        <time>2014-06-05T06:02:20Z</time>
      </trkpt>
      <trkpt lat="42.45194" lon="2.62039">
        <ele>301.99</ele>
        <time>2014-06-05T06:02:33Z</time>
      </trkpt>
      <trkpt lat="42.4517" lon="2.62015">
        <ele>302.47</ele>
        <time>2014-06-05T06:02:38Z</time>
      </trkpt>
      <trkpt lat="42.45087" lon="2.61932">
        <ele>303.91</ele>
        <time>2014-06-05T06:02:57Z</time>
      </trkpt>
      <trkpt lat="42.44999" lon="2.61847">
        <ele>303.43</ele>
        <time>2014-06-05T06:03:18Z</time>
      </trkpt>
      <trkpt lat="42.4498" lon="2.61829">
        <ele>303.91</ele>
        <time>2014-06-05T06:03:23Z</time>
      </trkpt>
      <trkpt lat="42.44972" lon="2.61822">
        <ele>303.91</ele>
        <time>2014-06-05T06:03:25Z</time>
      </trkpt>
      <trkpt lat="42.44903" lon="2.61753">
        <ele>305.36</ele>
        <time>2014-06-05T06:03:44Z</time>
      </trkpt>
      <trkpt lat="42.449" lon="2.61749">
        <ele>305.84</ele>
        <time>2014-06-05T06:03:45Z</time>
      </trkpt>
      <trkpt lat="42.44879" lon="2.61705">
        <ele>308.72</ele>
        <time>2014-06-05T06:03:55Z</time>
      </trkpt>
      <trkpt lat="42.44882" lon="2.61689">
        <ele>309.2</ele>
        <time>2014-06-05T06:03:58Z</time>
      </trkpt>
      <trkpt lat="42.44919" lon="2.61616">
        <ele>315.93</ele>
        <time>2014-06-05T06:04:14Z</time>
      </trkpt>
      <trkpt lat="42.44932" lon="2.61598">
        <ele>318.81</ele>
        <time>2014-06-05T06:04:18Z</time>
      </trkpt>
      <trkpt lat="42.44977" lon="2.61541">
        <ele>320.26</ele>
        <time>2014-06-05T06:04:32Z</time>
      </trkpt>
      <trkpt lat="42.45029" lon="2.61522">
        <ele>322.66</ele>
        <time>2014-06-05T06:04:46Z</time>
      </trkpt>
      <trkpt lat="42.45085" lon="2.6152">
        <ele>324.58</ele>
        <time>2014-06-05T06:05:00Z</time>
      </trkpt>
      <trkpt lat="42.45128" lon="2.6152">
        <ele>325.54</ele>
        <time>2014-06-05T06:05:10Z</time>
      </trkpt>
      <trkpt lat="42.45183" lon="2.61494">
        <ele>326.5</ele>
        <time>2014-06-05T06:05:23Z</time>
      </trkpt>
      <trkpt lat="42.45192" lon="2.6149">
        <ele>326.5</ele>
        <time>2014-06-05T06:05:25Z</time>
      </trkpt>
      <trkpt lat="42.45254" lon="2.61459">
        <ele>323.62</ele>
        <time>2014-06-05T06:05:39Z</time>
      </trkpt>
      <trkpt lat="42.45268" lon="2.61446">
        <ele>323.14</ele>
        <time>2014-06-05T06:05:43Z</time>
      </trkpt>
      <trkpt lat="42.4531" lon="2.61376">
        <ele>325.06</ele>
        <time>2014-06-05T06:05:59Z</time>
      </trkpt>
      <trkpt lat="42.45323" lon="2.61342">
        <ele>326.5</ele>
        <time>2014-06-05T06:06:12Z</time>
      </trkpt>
      <trkpt lat="42.45328" lon="2.61333">
        <ele>329.39</ele>
        <time>2014-06-05T06:06:25Z</time>
      </trkpt>
      <trkpt lat="42.45333" lon="2.61332">
        <ele>331.31</ele>
        <time>2014-06-05T06:06:49Z</time>
      </trkpt>
      <trkpt lat="42.45331" lon="2.61327">
        <ele>326.5</ele>
        <time>2014-06-05T06:07:02Z</time>
      </trkpt>
      <trkpt lat="42.45322" lon="2.61333">
        <ele>324.58</ele>
        <time>2014-06-05T06:07:06Z</time>
      </trkpt>
      <trkpt lat="42.45279" lon="2.61417">
        <ele>319.3</ele>
        <time>2014-06-05T06:07:20Z</time>
      </trkpt>
      <trkpt lat="42.45242" lon="2.61458">
        <ele>318.33</ele>
        <time>2014-06-05T06:07:27Z</time>
      </trkpt>
      <trkpt lat="42.4523" lon="2.61467">
        <ele>318.81</ele>
        <time>2014-06-05T06:07:29Z</time>
      </trkpt>
      <trkpt lat="42.45164" lon="2.61493">
        <ele>320.26</ele>
        <time>2014-06-05T06:07:39Z</time>
      </trkpt>
      <trkpt lat="42.45146" lon="2.61505">
        <ele>320.74</ele>
        <time>2014-06-05T06:07:42Z</time>
      </trkpt>
      <trkpt lat="42.4512" lon="2.61513">
        <ele>321.22</ele>
        <time>2014-06-05T06:07:46Z</time>
      </trkpt>
      <trkpt lat="42.45022" lon="2.61506">
        <ele>317.85</ele>
        <time>2014-06-05T06:07:59Z</time>
      </trkpt>
      <trkpt lat="42.44971" lon="2.61531">
        <ele>314.97</ele>
        <time>2014-06-05T06:08:06Z</time>
      </trkpt>
      <trkpt lat="42.44914" lon="2.61605">
        <ele>311.6</ele>
        <time>2014-06-05T06:08:16Z</time>
      </trkpt>
      <trkpt lat="42.44879" lon="2.61674">
        <ele>310.16</ele>
        <time>2014-06-05T06:08:24Z</time>
      </trkpt>
      <trkpt lat="42.44891" lon="2.61745">
        <ele>308.72</ele>
        <time>2014-06-05T06:08:31Z</time>
      </trkpt>
      <trkpt lat="42.44897" lon="2.61753">
        <ele>308.24</ele>
        <time>2014-06-05T06:08:32Z</time>
      </trkpt>
      <trkpt lat="42.45029" lon="2.61887">
        <ele>301.51</ele>
        <time>2014-06-05T06:08:52Z</time>
      </trkpt>
      <trkpt lat="42.45157" lon="2.62008">
        <ele>297.67</ele>
        <time>2014-06-05T06:09:12Z</time>
      </trkpt>
      <trkpt lat="42.45257" lon="2.62109">
        <ele>298.63</ele>
        <time>2014-06-05T06:09:29Z</time>
      </trkpt>
      <trkpt lat="42.45321" lon="2.62206">
        <ele>298.15</ele>
        <time>2014-06-05T06:09:43Z</time>
      </trkpt>
      <trkpt lat="42.45376" lon="2.62271">
        <ele>301.03</ele>
        <time>2014-06-05T06:09:56Z</time>
      </trkpt>
      <trkpt lat="42.45385" lon="2.62288">
        <ele>300.55</ele>
        <time>2014-06-05T06:09:59Z</time>
      </trkpt>
      <trkpt lat="42.45416" lon="2.62406">
        <ele>302.47</ele>
        <time>2014-06-05T06:10:17Z</time>
      </trkpt>
      <trkpt lat="42.45438" lon="2.62492">
        <ele>303.43</ele>
        <time>2014-06-05T06:10:30Z</time>
      </trkpt>
      <trkpt lat="42.4544" lon="2.62593">
        <ele>303.43</ele>
        <time>2014-06-05T06:10:43Z</time>
      </trkpt>
      <trkpt lat="42.45438" lon="2.62737">
        <ele>302.95</ele>
        <time>2014-06-05T06:10:59Z</time>
      </trkpt>
      <trkpt lat="42.45467" lon="2.62863">
        <ele>301.99</ele>
        <time>2014-06-05T06:11:13Z</time>
      </trkpt>
      <trkpt lat="42.45543" lon="2.63031">
        <ele>298.63</ele>
        <time>2014-06-05T06:11:32Z</time>
      </trkpt>
      <trkpt lat="42.45574" lon="2.63096">
        <ele>296.7</ele>
        <time>2014-06-05T06:11:39Z</time>
      </trkpt>
      <trkpt lat="42.45616" lon="2.63234">
        <ele>294.3</ele>
        <time>2014-06-05T06:11:54Z</time>
      </trkpt>
      <trkpt lat="42.45637" lon="2.63317">
        <ele>292.38</ele>
        <time>2014-06-05T06:12:04Z</time>
      </trkpt>
      <trkpt lat="42.45642" lon="2.63331">
        <ele>291.9</ele>
        <time>2014-06-05T06:12:07Z</time>
      </trkpt>
      <trkpt lat="42.45625" lon="2.63344">
        <ele>291.9</ele>
        <time>2014-06-05T06:12:12Z</time>
      </trkpt>
      <trkpt lat="42.45594" lon="2.63391">
        <ele>291.9</ele>
        <time>2014-06-05T06:12:20Z</time>
      </trkpt>
      <trkpt lat="42.45581" lon="2.63418">
        <ele>290.94</ele>
        <time>2014-06-05T06:12:24Z</time>
      </trkpt>
      <trkpt lat="42.45571" lon="2.63431">
        <ele>289.97</ele>
        <time>2014-06-05T06:12:26Z</time>
      </trkpt>
      <trkpt lat="42.45554" lon="2.63469">
        <ele>287.57</ele>
        <time>2014-06-05T06:12:31Z</time>
      </trkpt>
      <trkpt lat="42.45551" lon="2.63485">
        <ele>286.61</ele>
        <time>2014-06-05T06:12:33Z</time>
      </trkpt>
      <trkpt lat="42.45553" lon="2.63517">
        <ele>284.69</ele>
        <time>2014-06-05T06:12:37Z</time>
      </trkpt>
      <trkpt lat="42.45576" lon="2.6355">
        <ele>282.28</ele>
        <time>2014-06-05T06:12:43Z</time>
      </trkpt>
      <trkpt lat="42.45622" lon="2.63569">
        <ele>280.84</ele>
        <time>2014-06-05T06:12:51Z</time>
      </trkpt>
      <trkpt lat="42.45638" lon="2.63622">
        <ele>282.28</ele>
        <time>2014-06-05T06:12:58Z</time>
      </trkpt>
      <trkpt lat="42.45666" lon="2.63635">
        <ele>277.48</ele>
        <time>2014-06-05T06:13:02Z</time>
      </trkpt>
      <trkpt lat="42.45721" lon="2.63622">
        <ele>276.04</ele>
        <time>2014-06-05T06:13:11Z</time>
      </trkpt>
      <trkpt lat="42.4578" lon="2.6364">
        <ele>272.19</ele>
        <time>2014-06-05T06:13:21Z</time>
      </trkpt>
      <trkpt lat="42.45891" lon="2.63662">
        <ele>270.75</ele>
        <time>2014-06-05T06:13:37Z</time>
      </trkpt>
      <trkpt lat="42.45996" lon="2.63703">
        <ele>272.67</ele>
        <time>2014-06-05T06:13:53Z</time>
      </trkpt>
      <trkpt lat="42.46009" lon="2.6371">
        <ele>272.19</ele>
        <time>2014-06-05T06:13:55Z</time>
      </trkpt>
      <trkpt lat="42.46048" lon="2.63714">
        <ele>272.19</ele>
        <time>2014-06-05T06:14:01Z</time>
      </trkpt>
      <trkpt lat="42.46106" lon="2.63699">
        <ele>273.15</ele>
        <time>2014-06-05T06:14:11Z</time>
      </trkpt>
      <trkpt lat="42.4613" lon="2.6371">
        <ele>273.15</ele>
        <time>2014-06-05T06:14:15Z</time>
      </trkpt>
      <trkpt lat="42.46208" lon="2.63788">
        <ele>272.67</ele>
        <time>2014-06-05T06:14:29Z</time>
      </trkpt>
      <trkpt lat="42.46306" lon="2.639">
        <ele>268.83</ele>
        <time>2014-06-05T06:14:45Z</time>
      </trkpt>
      <trkpt lat="42.46357" lon="2.64028">
        <ele>270.27</ele>
        <time>2014-06-05T06:14:59Z</time>
      </trkpt>
      <trkpt lat="42.46394" lon="2.64168">
        <ele>270.75</ele>
        <time>2014-06-05T06:15:13Z</time>
      </trkpt>
      <trkpt lat="42.46391" lon="2.64215">
        <ele>269.31</ele>
        <time>2014-06-05T06:15:17Z</time>
      </trkpt>
      <trkpt lat="42.46372" lon="2.64278">
        <ele>269.31</ele>
        <time>2014-06-05T06:15:23Z</time>
      </trkpt>
      <trkpt lat="42.46372" lon="2.64343">
        <ele>269.31</ele>
        <time>2014-06-05T06:15:29Z</time>
      </trkpt>
      <trkpt lat="42.46389" lon="2.644">
        <ele>269.79</ele>
        <time>2014-06-05T06:15:35Z</time>
      </trkpt>
      <trkpt lat="42.46392" lon="2.64439">
        <ele>270.27</ele>
        <time>2014-06-05T06:15:39Z</time>
      </trkpt>
      <trkpt lat="42.46381" lon="2.64524">
        <ele>270.27</ele>
        <time>2014-06-05T06:15:48Z</time>
      </trkpt>
      <trkpt lat="42.46405" lon="2.64585">
        <ele>267.38</ele>
        <time>2014-06-05T06:15:55Z</time>
      </trkpt>
      <trkpt lat="42.46451" lon="2.64623">
        <ele>264.98</ele>
        <time>2014-06-05T06:16:01Z</time>
      </trkpt>
      <trkpt lat="42.46494" lon="2.64711">
        <ele>261.62</ele>
        <time>2014-06-05T06:16:10Z</time>
      </trkpt>
      <trkpt lat="42.46515" lon="2.64757">
        <ele>261.14</ele>
        <time>2014-06-05T06:16:15Z</time>
      </trkpt>
      <trkpt lat="42.46566" lon="2.6487">
        <ele>262.58</ele>
        <time>2014-06-05T06:16:28Z</time>
      </trkpt>
      <trkpt lat="42.46623" lon="2.65016">
        <ele>262.1</ele>
        <time>2014-06-05T06:16:43Z</time>
      </trkpt>
      <trkpt lat="42.46656" lon="2.65176">
        <ele>259.69</ele>
        <time>2014-06-05T06:16:59Z</time>
      </trkpt>
      <trkpt lat="42.46691" lon="2.65344">
        <ele>255.85</ele>
        <time>2014-06-05T06:17:15Z</time>
      </trkpt>
      <trkpt lat="42.46734" lon="2.65543">
        <ele>252.96</ele>
        <time>2014-06-05T06:17:33Z</time>
      </trkpt>
      <trkpt lat="42.46771" lon="2.6572">
        <ele>254.89</ele>
        <time>2014-06-05T06:17:50Z</time>
      </trkpt>
      <trkpt lat="42.46801" lon="2.65855">
        <ele>252.96</ele>
        <time>2014-06-05T06:18:02Z</time>
      </trkpt>
      <trkpt lat="42.46876" lon="2.66011">
        <ele>246.23</ele>
        <time>2014-06-05T06:18:17Z</time>
      </trkpt>
      <trkpt lat="42.4688" lon="2.66021">
        <ele>245.75</ele>
        <time>2014-06-05T06:18:18Z</time>
      </trkpt>
      <trkpt lat="42.46903" lon="2.66093">
        <ele>244.79</ele>
        <time>2014-06-05T06:18:25Z</time>
      </trkpt>
      <trkpt lat="42.46964" lon="2.66182">
        <ele>243.35</ele>
        <time>2014-06-05T06:18:36Z</time>
      </trkpt>
      <trkpt lat="42.47057" lon="2.66246">
        <ele>242.87</ele>
        <time>2014-06-05T06:18:50Z</time>
      </trkpt>
      <trkpt lat="42.47083" lon="2.66261">
        <ele>242.39</ele>
        <time>2014-06-05T06:18:54Z</time>
      </trkpt>
      <trkpt lat="42.47111" lon="2.66265">
        <ele>241.43</ele>
        <time>2014-06-05T06:18:58Z</time>
      </trkpt>
      <trkpt lat="42.47224" lon="2.66247">
        <ele>236.14</ele>
        <time>2014-06-05T06:19:13Z</time>
      </trkpt>
      <trkpt lat="42.47256" lon="2.66259">
        <ele>234.7</ele>
        <time>2014-06-05T06:19:17Z</time>
      </trkpt>
      <trkpt lat="42.47352" lon="2.66327">
        <ele>233.26</ele>
        <time>2014-06-05T06:19:31Z</time>
      </trkpt>
      <trkpt lat="42.47381" lon="2.6637">
        <ele>234.22</ele>
        <time>2014-06-05T06:19:39Z</time>
      </trkpt>
      <trkpt lat="42.47389" lon="2.66393">
        <ele>233.26</ele>
        <time>2014-06-05T06:19:43Z</time>
      </trkpt>
      <trkpt lat="42.47421" lon="2.66505">
        <ele>229.89</ele>
        <time>2014-06-05T06:19:57Z</time>
      </trkpt>
      <trkpt lat="42.47427" lon="2.66539">
        <ele>229.41</ele>
        <time>2014-06-05T06:20:01Z</time>
      </trkpt>
      <trkpt lat="42.47407" lon="2.66634">
        <ele>227.49</ele>
        <time>2014-06-05T06:20:12Z</time>
      </trkpt>
      <trkpt lat="42.47366" lon="2.6678">
        <ele>227.49</ele>
        <time>2014-06-05T06:20:29Z</time>
      </trkpt>
      <trkpt lat="42.47356" lon="2.66816">
        <ele>227.49</ele>
        <time>2014-06-05T06:20:33Z</time>
      </trkpt>
      <trkpt lat="42.47332" lon="2.66902">
        <ele>225.57</ele>
        <time>2014-06-05T06:20:42Z</time>
      </trkpt>
      <trkpt lat="42.47302" lon="2.66999">
        <ele>225.57</ele>
        <time>2014-06-05T06:20:53Z</time>
      </trkpt>
      <trkpt lat="42.47297" lon="2.67018">
        <ele>225.57</ele>
        <time>2014-06-05T06:20:55Z</time>
      </trkpt>
      <trkpt lat="42.4729" lon="2.67038">
        <ele>225.57</ele>
        <time>2014-06-05T06:20:57Z</time>
      </trkpt>
      <trkpt lat="42.47265" lon="2.67071">
        <ele>224.61</ele>
        <time>2014-06-05T06:21:02Z</time>
      </trkpt>
      <trkpt lat="42.47269" lon="2.67153">
        <ele>224.12</ele>
        <time>2014-06-05T06:21:11Z</time>
      </trkpt>
      <trkpt lat="42.47289" lon="2.6731">
        <ele>220.28</ele>
        <time>2014-06-05T06:21:27Z</time>
      </trkpt>
      <trkpt lat="42.47292" lon="2.67329">
        <ele>220.28</ele>
        <time>2014-06-05T06:21:29Z</time>
      </trkpt>
      <trkpt lat="42.47326" lon="2.67393">
        <ele>217.88</ele>
        <time>2014-06-05T06:21:37Z</time>
      </trkpt>
      <trkpt lat="42.47393" lon="2.67506">
        <ele>212.11</ele>
        <time>2014-06-05T06:21:51Z</time>
      </trkpt>
      <trkpt lat="42.47398" lon="2.67514">
        <ele>211.63</ele>
        <time>2014-06-05T06:21:52Z</time>
      </trkpt>
      <trkpt lat="42.47451" lon="2.67545">
        <ele>211.15</ele>
        <time>2014-06-05T06:22:00Z</time>
      </trkpt>
      <trkpt lat="42.47482" lon="2.67549">
        <ele>211.63</ele>
        <time>2014-06-05T06:22:04Z</time>
      </trkpt>
      <trkpt lat="42.47496" lon="2.67546">
        <ele>211.63</ele>
        <time>2014-06-05T06:22:06Z</time>
      </trkpt>
      <trkpt lat="42.47611" lon="2.67482">
        <ele>212.11</ele>
        <time>2014-06-05T06:22:22Z</time>
      </trkpt>
      <trkpt lat="42.4768" lon="2.67439">
        <ele>211.15</ele>
        <time>2014-06-05T06:22:32Z</time>
      </trkpt>
      <trkpt lat="42.47694" lon="2.67429">
        <ele>211.15</ele>
        <time>2014-06-05T06:22:34Z</time>
      </trkpt>
      <trkpt lat="42.47709" lon="2.67423">
        <ele>211.15</ele>
        <time>2014-06-05T06:22:36Z</time>
      </trkpt>
      <trkpt lat="42.4778" lon="2.67382">
        <ele>210.67</ele>
        <time>2014-06-05T06:22:46Z</time>
      </trkpt>
      <trkpt lat="42.47823" lon="2.67387">
        <ele>210.67</ele>
        <time>2014-06-05T06:22:52Z</time>
      </trkpt>
      <trkpt lat="42.47932" lon="2.67471">
        <ele>211.63</ele>
        <time>2014-06-05T06:23:11Z</time>
      </trkpt>
      <trkpt lat="42.47989" lon="2.67516">
        <ele>212.59</ele>
        <time>2014-06-05T06:23:21Z</time>
      </trkpt>
      <trkpt lat="42.48056" lon="2.67624">
        <ele>212.59</ele>
        <time>2014-06-05T06:23:36Z</time>
      </trkpt>
      <trkpt lat="42.4808" lon="2.67665">
        <ele>212.11</ele>
        <time>2014-06-05T06:23:42Z</time>
      </trkpt>
      <trkpt lat="42.48096" lon="2.67714">
        <ele>212.11</ele>
        <time>2014-06-05T06:23:48Z</time>
      </trkpt>
      <trkpt lat="42.48112" lon="2.67793">
        <ele>211.63</ele>
        <time>2014-06-05T06:23:57Z</time>
      </trkpt>
      <trkpt lat="42.48114" lon="2.67811">
        <ele>211.63</ele>
        <time>2014-06-05T06:23:59Z</time>
      </trkpt>
      <trkpt lat="42.48145" lon="2.67901">
        <ele>211.15</ele>
        <time>2014-06-05T06:24:09Z</time>
      </trkpt>
      <trkpt lat="42.48184" lon="2.68034">
        <ele>208.74</ele>
        <time>2014-06-05T06:24:23Z</time>
      </trkpt>
      <trkpt lat="42.48216" lon="2.68156">
        <ele>207.3</ele>
        <time>2014-06-05T06:24:36Z</time>
      </trkpt>
      <trkpt lat="42.48205" lon="2.68292">
        <ele>207.78</ele>
        <time>2014-06-05T06:24:49Z</time>
      </trkpt>
      <trkpt lat="42.4819" lon="2.68429">
        <ele>207.3</ele>
        <time>2014-06-05T06:25:02Z</time>
      </trkpt>
      <trkpt lat="42.48193" lon="2.68474">
        <ele>206.82</ele>
        <time>2014-06-05T06:25:06Z</time>
      </trkpt>
      <trkpt lat="42.48246" lon="2.68673">
        <ele>203.94</ele>
        <time>2014-06-05T06:25:24Z</time>
      </trkpt>
      <trkpt lat="42.48249" lon="2.68693">
        <ele>203.94</ele>
        <time>2014-06-05T06:25:26Z</time>
      </trkpt>
      <trkpt lat="42.4825" lon="2.68711">
        <ele>203.46</ele>
        <time>2014-06-05T06:25:28Z</time>
      </trkpt>
      <trkpt lat="42.48286" lon="2.68769">
        <ele>199.61</ele>
        <time>2014-06-05T06:25:36Z</time>
      </trkpt>
      <trkpt lat="42.48332" lon="2.68849">
        <ele>196.73</ele>
        <time>2014-06-05T06:25:45Z</time>
      </trkpt>
      <trkpt lat="42.48357" lon="2.68954">
        <ele>193.84</ele>
        <time>2014-06-05T06:25:55Z</time>
      </trkpt>
      <trkpt lat="42.48384" lon="2.69111">
        <ele>189.04</ele>
        <time>2014-06-05T06:26:09Z</time>
      </trkpt>
      <trkpt lat="42.48412" lon="2.69312">
        <ele>188.56</ele>
        <time>2014-06-05T06:26:28Z</time>
      </trkpt>
      <trkpt lat="42.48423" lon="2.6952">
        <ele>184.23</ele>
        <time>2014-06-05T06:26:48Z</time>
      </trkpt>
      <trkpt lat="42.4843" lon="2.69661">
        <ele>182.79</ele>
        <time>2014-06-05T06:27:02Z</time>
      </trkpt>
      <trkpt lat="42.48446" lon="2.69709">
        <ele>182.31</ele>
        <time>2014-06-05T06:27:07Z</time>
      </trkpt>
      <trkpt lat="42.48518" lon="2.6982">
        <ele>181.83</ele>
        <time>2014-06-05T06:27:22Z</time>
      </trkpt>
      <trkpt lat="42.48588" lon="2.69909">
        <ele>178.94</ele>
        <time>2014-06-05T06:27:35Z</time>
      </trkpt>
      <trkpt lat="42.48673" lon="2.69987">
        <ele>176.06</ele>
        <time>2014-06-05T06:27:49Z</time>
      </trkpt>
      <trkpt lat="42.48753" lon="2.70067">
        <ele>178.94</ele>
        <time>2014-06-05T06:28:03Z</time>
      </trkpt>
      <trkpt lat="42.48858" lon="2.7018">
        <ele>178.46</ele>
        <time>2014-06-05T06:28:21Z</time>
      </trkpt>
      <trkpt lat="42.48936" lon="2.70269">
        <ele>179.9</ele>
        <time>2014-06-05T06:28:36Z</time>
      </trkpt>
      <trkpt lat="42.49001" lon="2.70339">
        <ele>184.23</ele>
        <time>2014-06-05T06:28:51Z</time>
      </trkpt>
      <trkpt lat="42.49081" lon="2.70411">
        <ele>185.19</ele>
        <time>2014-06-05T06:29:08Z</time>
      </trkpt>
      <trkpt lat="42.49087" lon="2.70416">
        <ele>185.19</ele>
        <time>2014-06-05T06:29:09Z</time>
      </trkpt>
      <trkpt lat="42.49108" lon="2.70441">
        <ele>185.67</ele>
        <time>2014-06-05T06:29:13Z</time>
      </trkpt>
      <trkpt lat="42.49142" lon="2.70469">
        <ele>185.19</ele>
        <time>2014-06-05T06:29:18Z</time>
      </trkpt>
      <trkpt lat="42.49171" lon="2.70509">
        <ele>183.27</ele>
        <time>2014-06-05T06:29:23Z</time>
      </trkpt>
      <trkpt lat="42.49197" lon="2.70534">
        <ele>182.31</ele>
        <time>2014-06-05T06:29:27Z</time>
      </trkpt>
      <trkpt lat="42.49219" lon="2.70547">
        <ele>181.83</ele>
        <time>2014-06-05T06:29:30Z</time>
      </trkpt>
      <trkpt lat="42.49248" lon="2.70554">
        <ele>182.31</ele>
        <time>2014-06-05T06:29:34Z</time>
      </trkpt>
      <trkpt lat="42.49368" lon="2.70528">
        <ele>181.83</ele>
        <time>2014-06-05T06:29:50Z</time>
      </trkpt>
      <trkpt lat="42.49471" lon="2.70528">
        <ele>182.31</ele>
        <time>2014-06-05T06:30:04Z</time>
      </trkpt>
      <trkpt lat="42.49546" lon="2.70576">
        <ele>180.87</ele>
        <time>2014-06-05T06:30:17Z</time>
      </trkpt>
      <trkpt lat="42.49583" lon="2.70632">
        <ele>182.31</ele>
        <time>2014-06-05T06:30:26Z</time>
      </trkpt>
      <trkpt lat="42.49594" lon="2.70673">
        <ele>183.27</ele>
        <time>2014-06-05T06:30:31Z</time>
      </trkpt>
      <trkpt lat="42.49595" lon="2.70691">
        <ele>183.27</ele>
        <time>2014-06-05T06:30:33Z</time>
      </trkpt>
      <trkpt lat="42.49572" lon="2.70814">
        <ele>181.83</ele>
        <time>2014-06-05T06:30:45Z</time>
      </trkpt>
      <trkpt lat="42.49521" lon="2.71">
        <ele>178.94</ele>
        <time>2014-06-05T06:31:02Z</time>
      </trkpt>
      <trkpt lat="42.49479" lon="2.71177">
        <ele>176.06</ele>
        <time>2014-06-05T06:31:20Z</time>
      </trkpt>
      <trkpt lat="42.49485" lon="2.71319">
        <ele>172.69</ele>
        <time>2014-06-05T06:31:33Z</time>
      </trkpt>
      <trkpt lat="42.49491" lon="2.71404">
        <ele>171.25</ele>
        <time>2014-06-05T06:31:41Z</time>
      </trkpt>
      <trkpt lat="42.4947" lon="2.71526">
        <ele>169.81</ele>
        <time>2014-06-05T06:31:53Z</time>
      </trkpt>
      <trkpt lat="42.49435" lon="2.71684">
        <ele>168.37</ele>
        <time>2014-06-05T06:32:08Z</time>
      </trkpt>
      <trkpt lat="42.49429" lon="2.71707">
        <ele>167.41</ele>
        <time>2014-06-05T06:32:10Z</time>
      </trkpt>
      <trkpt lat="42.4943" lon="2.71751">
        <ele>166.93</ele>
        <time>2014-06-05T06:32:14Z</time>
      </trkpt>
      <trkpt lat="42.49437" lon="2.7177">
        <ele>166.45</ele>
        <time>2014-06-05T06:32:16Z</time>
      </trkpt>
      <trkpt lat="42.49439" lon="2.71843">
        <ele>165</ele>
        <time>2014-06-05T06:32:23Z</time>
      </trkpt>
      <trkpt lat="42.49402" lon="2.71966">
        <ele>163.56</ele>
        <time>2014-06-05T06:32:36Z</time>
      </trkpt>
      <trkpt lat="42.49392" lon="2.72016">
        <ele>163.08</ele>
        <time>2014-06-05T06:32:41Z</time>
      </trkpt>
      <trkpt lat="42.49387" lon="2.72104">
        <ele>161.64</ele>
        <time>2014-06-05T06:32:49Z</time>
      </trkpt>
      <trkpt lat="42.49396" lon="2.7224">
        <ele>158.75</ele>
        <time>2014-06-05T06:33:01Z</time>
      </trkpt>
      <trkpt lat="42.49395" lon="2.72271">
        <ele>158.75</ele>
        <time>2014-06-05T06:33:04Z</time>
      </trkpt>
      <trkpt lat="42.49399" lon="2.72309">
        <ele>159.24</ele>
        <time>2014-06-05T06:33:08Z</time>
      </trkpt>
      <trkpt lat="42.49414" lon="2.72359">
        <ele>159.72</ele>
        <time>2014-06-05T06:33:14Z</time>
      </trkpt>
      <trkpt lat="42.49427" lon="2.72421">
        <ele>160.68</ele>
        <time>2014-06-05T06:33:21Z</time>
      </trkpt>
      <trkpt lat="42.49435" lon="2.72522">
        <ele>160.2</ele>
        <time>2014-06-05T06:33:32Z</time>
      </trkpt>
      <trkpt lat="42.49444" lon="2.72547">
        <ele>159.72</ele>
        <time>2014-06-05T06:33:35Z</time>
      </trkpt>
      <trkpt lat="42.4945" lon="2.72564">
        <ele>159.24</ele>
        <time>2014-06-05T06:33:37Z</time>
      </trkpt>
      <trkpt lat="42.49483" lon="2.72628">
        <ele>158.75</ele>
        <time>2014-06-05T06:33:45Z</time>
      </trkpt>
      <trkpt lat="42.49509" lon="2.72758">
        <ele>157.79</ele>
        <time>2014-06-05T06:33:58Z</time>
      </trkpt>
      <trkpt lat="42.49527" lon="2.72908">
        <ele>156.83</ele>
        <time>2014-06-05T06:34:13Z</time>
      </trkpt>
      <trkpt lat="42.49525" lon="2.73064">
        <ele>154.91</ele>
        <time>2014-06-05T06:34:29Z</time>
      </trkpt>
      <trkpt lat="42.49516" lon="2.73111">
        <ele>154.43</ele>
        <time>2014-06-05T06:34:34Z</time>
      </trkpt>
      <trkpt lat="42.49493" lon="2.73139">
        <ele>153.95</ele>
        <time>2014-06-05T06:34:39Z</time>
      </trkpt>
      <trkpt lat="42.49455" lon="2.73182">
        <ele>154.43</ele>
        <time>2014-06-05T06:34:47Z</time>
      </trkpt>
      <trkpt lat="42.49453" lon="2.73191">
        <ele>154.43</ele>
        <time>2014-06-05T06:34:48Z</time>
      </trkpt>
      <trkpt lat="42.49432" lon="2.73306">
        <ele>153.95</ele>
        <time>2014-06-05T06:35:01Z</time>
      </trkpt>
      <trkpt lat="42.49423" lon="2.7333">
        <ele>153.95</ele>
        <time>2014-06-05T06:35:04Z</time>
      </trkpt>
      <trkpt lat="42.49412" lon="2.73364">
        <ele>153.47</ele>
        <time>2014-06-05T06:35:08Z</time>
      </trkpt>
      <trkpt lat="42.49397" lon="2.73444">
        <ele>152.99</ele>
        <time>2014-06-05T06:35:17Z</time>
      </trkpt>
      <trkpt lat="42.49386" lon="2.73577">
        <ele>152.51</ele>
        <time>2014-06-05T06:35:32Z</time>
      </trkpt>
      <trkpt lat="42.49376" lon="2.73692">
        <ele>153.95</ele>
        <time>2014-06-05T06:35:45Z</time>
      </trkpt>
      <trkpt lat="42.49374" lon="2.73774">
        <ele>156.83</ele>
        <time>2014-06-05T06:35:54Z</time>
      </trkpt>
      <trkpt lat="42.49373" lon="2.73793">
        <ele>157.79</ele>
        <time>2014-06-05T06:35:56Z</time>
      </trkpt>
      <trkpt lat="42.49376" lon="2.73889">
        <ele>159.24</ele>
        <time>2014-06-05T06:36:06Z</time>
      </trkpt>
      <trkpt lat="42.49349" lon="2.74009">
        <ele>160.2</ele>
        <time>2014-06-05T06:36:19Z</time>
      </trkpt>
      <trkpt lat="42.49323" lon="2.7413">
        <ele>159.24</ele>
        <time>2014-06-05T06:36:32Z</time>
      </trkpt>
      <trkpt lat="42.49313" lon="2.74172">
        <ele>158.75</ele>
        <time>2014-06-05T06:36:37Z</time>
      </trkpt>
      <trkpt lat="42.49302" lon="2.74219">
        <ele>158.27</ele>
        <time>2014-06-05T06:36:46Z</time>
      </trkpt>
      <trkpt lat="42.4929" lon="2.74242">
        <ele>159.72</ele>
        <time>2014-06-05T06:36:54Z</time>
      </trkpt>
      <trkpt lat="42.49256" lon="2.74301">
        <ele>162.12</ele>
        <time>2014-06-05T06:37:04Z</time>
      </trkpt>
      <trkpt lat="42.49238" lon="2.74317">
        <ele>162.6</ele>
        <time>2014-06-05T06:37:08Z</time>
      </trkpt>
      <trkpt lat="42.49145" lon="2.7435">
        <ele>165</ele>
        <time>2014-06-05T06:37:25Z</time>
      </trkpt>
      <trkpt lat="42.49087" lon="2.74385">
        <ele>164.04</ele>
        <time>2014-06-05T06:37:35Z</time>
      </trkpt>
      <trkpt lat="42.49067" lon="2.74411">
        <ele>164.04</ele>
        <time>2014-06-05T06:37:39Z</time>
      </trkpt>
      <trkpt lat="42.49056" lon="2.74434">
        <ele>164.04</ele>
        <time>2014-06-05T06:37:42Z</time>
      </trkpt>
      <trkpt lat="42.49019" lon="2.74507">
        <ele>164.04</ele>
        <time>2014-06-05T06:37:52Z</time>
      </trkpt>
      <trkpt lat="42.49004" lon="2.74533">
        <ele>164.04</ele>
        <time>2014-06-05T06:37:56Z</time>
      </trkpt>
      <trkpt lat="42.48992" lon="2.7456">
        <ele>164.04</ele>
        <time>2014-06-05T06:38:00Z</time>
      </trkpt>
      <trkpt lat="42.48962" lon="2.74623">
        <ele>164.52</ele>
        <time>2014-06-05T06:38:09Z</time>
      </trkpt>
      <trkpt lat="42.48959" lon="2.74661">
        <ele>164.52</ele>
        <time>2014-06-05T06:38:13Z</time>
      </trkpt>
      <trkpt lat="42.4896" lon="2.7468">
        <ele>164.04</ele>
        <time>2014-06-05T06:38:15Z</time>
      </trkpt>
      <trkpt lat="42.48972" lon="2.74714">
        <ele>164.04</ele>
        <time>2014-06-05T06:38:19Z</time>
      </trkpt>
      <trkpt lat="42.4898" lon="2.74731">
        <ele>163.56</ele>
        <time>2014-06-05T06:38:21Z</time>
      </trkpt>
      <trkpt lat="42.48996" lon="2.74802">
        <ele>162.12</ele>
        <time>2014-06-05T06:38:29Z</time>
      </trkpt>
      <trkpt lat="42.49011" lon="2.74838">
        <ele>161.64</ele>
        <time>2014-06-05T06:38:34Z</time>
      </trkpt>
      <trkpt lat="42.49019" lon="2.7485">
        <ele>161.16</ele>
        <time>2014-06-05T06:38:36Z</time>
      </trkpt>
      <trkpt lat="42.49028" lon="2.74895">
        <ele>160.68</ele>
        <time>2014-06-05T06:38:42Z</time>
      </trkpt>
      <trkpt lat="42.49011" lon="2.75027">
        <ele>160.68</ele>
        <time>2014-06-05T06:38:59Z</time>
      </trkpt>
      <trkpt lat="42.49004" lon="2.75076">
        <ele>161.16</ele>
        <time>2014-06-05T06:39:05Z</time>
      </trkpt>
      <trkpt lat="42.49002" lon="2.75139">
        <ele>161.16</ele>
        <time>2014-06-05T06:39:12Z</time>
      </trkpt>
      <trkpt lat="42.49" lon="2.75175">
        <ele>160.68</ele>
        <time>2014-06-05T06:39:16Z</time>
      </trkpt>
      <trkpt lat="42.48996" lon="2.75193">
        <ele>160.2</ele>
        <time>2014-06-05T06:39:20Z</time>
      </trkpt>
      <trkpt lat="42.49009" lon="2.75196">
        <ele>158.75</ele>
        <time>2014-06-05T06:39:26Z</time>
      </trkpt>
      <trkpt lat="42.4901" lon="2.75192">
        <ele>158.27</ele>
        <time>2014-06-05T06:39:27Z</time>
      </trkpt>
      <trkpt lat="42.49013" lon="2.75165">
        <ele>158.27</ele>
        <time>2014-06-05T06:39:33Z</time>
      </trkpt>
      <trkpt lat="42.49013" lon="2.75159">
        <ele>158.27</ele>
        <time>2014-06-05T06:39:45Z</time>
      </trkpt>
      <trkpt lat="42.49014" lon="2.75159">
        <ele>157.79</ele>
        <time>2014-06-05T06:40:02Z</time>
      </trkpt>
      <trkpt lat="42.4901" lon="2.75156">
        <ele>159.72</ele>
        <time>2014-06-05T06:40:22Z</time>
      </trkpt>
      <trkpt lat="42.49009" lon="2.75153">
        <ele>163.56</ele>
        <time>2014-06-05T06:40:41Z</time>
      </trkpt>
      <trkpt lat="42.49015" lon="2.75161">
        <ele>167.89</ele>
        <time>2014-06-05T06:41:06Z</time>
      </trkpt>
      <trkpt lat="42.49014" lon="2.75162">
        <ele>172.21</ele>
        <time>2014-06-05T06:41:31Z</time>
      </trkpt>
      <trkpt lat="42.49022" lon="2.75179">
        <ele>175.58</ele>
        <time>2014-06-05T06:41:50Z</time>
      </trkpt>
      <trkpt lat="42.49009" lon="2.75177">
        <ele>173.66</ele>
        <time>2014-06-05T06:42:20Z</time>
      </trkpt>
      <trkpt lat="42.49001" lon="2.75177">
        <ele>168.85</ele>
        <time>2014-06-05T06:42:48Z</time>
      </trkpt>
      <trkpt lat="42.49002" lon="2.75162">
        <ele>164.52</ele>
        <time>2014-06-05T06:43:12Z</time>
      </trkpt>
      <trkpt lat="42.49001" lon="2.75154">
        <ele>157.31</ele>
        <time>2014-06-05T06:43:35Z</time>
      </trkpt>
      <trkpt lat="42.49006" lon="2.75151">
        <ele>154.91</ele>
        <time>2014-06-05T06:43:52Z</time>
      </trkpt>
      <trkpt lat="42.49008" lon="2.75149">
        <ele>160.68</ele>
        <time>2014-06-05T06:44:18Z</time>
      </trkpt>
      <trkpt lat="42.49013" lon="2.75144">
        <ele>158.27</ele>
        <time>2014-06-05T06:44:24Z</time>
      </trkpt>
      <trkpt lat="42.49035" lon="2.75146">
        <ele>161.16</ele>
        <time>2014-06-05T06:44:32Z</time>
      </trkpt>
      <trkpt lat="42.49041" lon="2.75127">
        <ele>162.12</ele>
        <time>2014-06-05T06:44:37Z</time>
      </trkpt>
      <trkpt lat="42.49031" lon="2.7511">
        <ele>160.68</ele>
        <time>2014-06-05T06:44:42Z</time>
      </trkpt>
      <trkpt lat="42.49013" lon="2.75095">
        <ele>159.24</ele>
        <time>2014-06-05T06:44:52Z</time>
      </trkpt>
      <trkpt lat="42.49011" lon="2.7509">
        <ele>157.79</ele>
        <time>2014-06-05T06:44:55Z</time>
      </trkpt>
      <trkpt lat="42.49011" lon="2.75071">
        <ele>155.39</ele>
        <time>2014-06-05T06:45:01Z</time>
      </trkpt>
      <trkpt lat="42.49013" lon="2.75063">
        <ele>155.87</ele>
        <time>2014-06-05T06:45:03Z</time>
      </trkpt>
      <trkpt lat="42.49018" lon="2.75029">
        <ele>155.87</ele>
        <time>2014-06-05T06:45:09Z</time>
      </trkpt>
      <trkpt lat="42.4903" lon="2.74921">
        <ele>154.91</ele>
        <time>2014-06-05T06:45:23Z</time>
      </trkpt>
      <trkpt lat="42.49035" lon="2.74896">
        <ele>154.91</ele>
        <time>2014-06-05T06:45:26Z</time>
      </trkpt>
      <trkpt lat="42.49023" lon="2.74845">
        <ele>154.91</ele>
        <time>2014-06-05T06:45:32Z</time>
      </trkpt>
      <trkpt lat="42.4901" lon="2.74823">
        <ele>154.43</ele>
        <time>2014-06-05T06:45:35Z</time>
      </trkpt>
      <trkpt lat="42.48992" lon="2.7475">
        <ele>152.51</ele>
        <time>2014-06-05T06:45:43Z</time>
      </trkpt>
      <trkpt lat="42.48988" lon="2.74732">
        <ele>152.03</ele>
        <time>2014-06-05T06:45:45Z</time>
      </trkpt>
      <trkpt lat="42.48979" lon="2.74681">
        <ele>151.54</ele>
        <time>2014-06-05T06:45:52Z</time>
      </trkpt>
      <trkpt lat="42.48968" lon="2.74704">
        <ele>153.47</ele>
        <time>2014-06-05T06:45:57Z</time>
      </trkpt>
      <trkpt lat="42.48971" lon="2.7471">
        <ele>153.95</ele>
        <time>2014-06-05T06:45:58Z</time>
      </trkpt>
      <trkpt lat="42.48981" lon="2.74731">
        <ele>153.95</ele>
        <time>2014-06-05T06:46:01Z</time>
      </trkpt>
      <trkpt lat="42.49015" lon="2.74844">
        <ele>155.87</ele>
        <time>2014-06-05T06:46:16Z</time>
      </trkpt>
      <trkpt lat="42.49023" lon="2.74857">
        <ele>155.87</ele>
        <time>2014-06-05T06:46:18Z</time>
      </trkpt>
      <trkpt lat="42.49029" lon="2.749">
        <ele>155.87</ele>
        <time>2014-06-05T06:46:24Z</time>
      </trkpt>
      <trkpt lat="42.49016" lon="2.74972">
        <ele>158.27</ele>
        <time>2014-06-05T06:46:34Z</time>
      </trkpt>
      <trkpt lat="42.49003" lon="2.75076">
        <ele>159.24</ele>
        <time>2014-06-05T06:46:47Z</time>
      </trkpt>
      <trkpt lat="42.48998" lon="2.75174">
        <ele>157.79</ele>
        <time>2014-06-05T06:46:58Z</time>
      </trkpt>
      <trkpt lat="42.48982" lon="2.75206">
        <ele>156.83</ele>
        <time>2014-06-05T06:47:02Z</time>
      </trkpt>
      <trkpt lat="42.48969" lon="2.75225">
        <ele>156.83</ele>
        <time>2014-06-05T06:47:05Z</time>
      </trkpt>
      <trkpt lat="42.48917" lon="2.75244">
        <ele>156.83</ele>
        <time>2014-06-05T06:47:15Z</time>
      </trkpt>
      <trkpt lat="42.48908" lon="2.75226">
        <ele>156.83</ele>
        <time>2014-06-05T06:47:18Z</time>
      </trkpt>
      <trkpt lat="42.48905" lon="2.75212">
        <ele>156.83</ele>
        <time>2014-06-05T06:47:20Z</time>
      </trkpt>
      <trkpt lat="42.48879" lon="2.752">
        <ele>158.27</ele>
        <time>2014-06-05T06:47:26Z</time>
      </trkpt>
      <trkpt lat="42.48868" lon="2.75231">
        <ele>159.72</ele>
        <time>2014-06-05T06:47:31Z</time>
      </trkpt>
      <trkpt lat="42.48873" lon="2.75264">
        <ele>159.24</ele>
        <time>2014-06-05T06:47:35Z</time>
      </trkpt>
      <trkpt lat="42.4886" lon="2.75292">
        <ele>158.75</ele>
        <time>2014-06-05T06:47:40Z</time>
      </trkpt>
      <trkpt lat="42.48796" lon="2.75315">
        <ele>160.2</ele>
        <time>2014-06-05T06:47:53Z</time>
      </trkpt>
      <trkpt lat="42.48725" lon="2.75339">
        <ele>165.96</ele>
        <time>2014-06-05T06:48:08Z</time>
      </trkpt>
      <trkpt lat="42.48652" lon="2.75369">
        <ele>168.85</ele>
        <time>2014-06-05T06:48:24Z</time>
      </trkpt>
      <trkpt lat="42.48618" lon="2.75389">
        <ele>169.33</ele>
        <time>2014-06-05T06:48:32Z</time>
      </trkpt>
      <trkpt lat="42.48601" lon="2.75399">
        <ele>171.25</ele>
        <time>2014-06-05T06:48:36Z</time>
      </trkpt>
      <trkpt lat="42.48538" lon="2.75432">
        <ele>176.06</ele>
        <time>2014-06-05T06:48:50Z</time>
      </trkpt>
      <trkpt lat="42.48533" lon="2.75435">
        <ele>176.06</ele>
        <time>2014-06-05T06:48:51Z</time>
      </trkpt>
      <trkpt lat="42.48462" lon="2.75484">
        <ele>177.02</ele>
        <time>2014-06-05T06:49:06Z</time>
      </trkpt>
      <trkpt lat="42.48457" lon="2.75488">
        <ele>177.02</ele>
        <time>2014-06-05T06:49:07Z</time>
      </trkpt>
      <trkpt lat="42.48446" lon="2.75491">
        <ele>177.02</ele>
        <time>2014-06-05T06:49:09Z</time>
      </trkpt>
      <trkpt lat="42.48429" lon="2.75514">
        <ele>177.98</ele>
        <time>2014-06-05T06:49:13Z</time>
      </trkpt>
      <trkpt lat="42.48424" lon="2.75531">
        <ele>177.98</ele>
        <time>2014-06-05T06:49:15Z</time>
      </trkpt>
      <trkpt lat="42.48418" lon="2.75588">
        <ele>177.98</ele>
        <time>2014-06-05T06:49:21Z</time>
      </trkpt>
      <trkpt lat="42.48423" lon="2.75713">
        <ele>177.02</ele>
        <time>2014-06-05T06:49:33Z</time>
      </trkpt>
      <trkpt lat="42.48425" lon="2.75774">
        <ele>177.02</ele>
        <time>2014-06-05T06:49:41Z</time>
      </trkpt>
      <trkpt lat="42.48431" lon="2.75881">
        <ele>178.94</ele>
        <time>2014-06-05T06:49:57Z</time>
      </trkpt>
      <trkpt lat="42.48433" lon="2.759">
        <ele>179.9</ele>
        <time>2014-06-05T06:50:00Z</time>
      </trkpt>
      <trkpt lat="42.48438" lon="2.75941">
        <ele>180.38</ele>
        <time>2014-06-05T06:50:06Z</time>
      </trkpt>
      <trkpt lat="42.48439" lon="2.76048">
        <ele>179.9</ele>
        <time>2014-06-05T06:50:22Z</time>
      </trkpt>
      <trkpt lat="42.48438" lon="2.76062">
        <ele>179.42</ele>
        <time>2014-06-05T06:50:24Z</time>
      </trkpt>
      <trkpt lat="42.48434" lon="2.76083">
        <ele>178.94</ele>
        <time>2014-06-05T06:50:27Z</time>
      </trkpt>
      <trkpt lat="42.48436" lon="2.76112">
        <ele>177.5</ele>
        <time>2014-06-05T06:50:31Z</time>
      </trkpt>
      <trkpt lat="42.48445" lon="2.76222">
        <ele>174.62</ele>
        <time>2014-06-05T06:50:44Z</time>
      </trkpt>
      <trkpt lat="42.48457" lon="2.76384">
        <ele>171.73</ele>
        <time>2014-06-05T06:51:02Z</time>
      </trkpt>
      <trkpt lat="42.48465" lon="2.76545">
        <ele>170.77</ele>
        <time>2014-06-05T06:51:19Z</time>
      </trkpt>
      <trkpt lat="42.48474" lon="2.7671">
        <ele>172.69</ele>
        <time>2014-06-05T06:51:37Z</time>
      </trkpt>
      <trkpt lat="42.4848" lon="2.76851">
        <ele>171.25</ele>
        <time>2014-06-05T06:51:51Z</time>
      </trkpt>
      <trkpt lat="42.48491" lon="2.76988">
        <ele>166.45</ele>
        <time>2014-06-05T06:52:02Z</time>
      </trkpt>
      <trkpt lat="42.48542" lon="2.77098">
        <ele>161.64</ele>
        <time>2014-06-05T06:52:12Z</time>
      </trkpt>
      <trkpt lat="42.48555" lon="2.77117">
        <ele>160.68</ele>
        <time>2014-06-05T06:52:14Z</time>
      </trkpt>
      <trkpt lat="42.48616" lon="2.7722">
        <ele>156.35</ele>
        <time>2014-06-05T06:52:27Z</time>
      </trkpt>
      <trkpt lat="42.48639" lon="2.77259">
        <ele>157.31</ele>
        <time>2014-06-05T06:52:33Z</time>
      </trkpt>
      <trkpt lat="42.48678" lon="2.77325">
        <ele>162.6</ele>
        <time>2014-06-05T06:52:43Z</time>
      </trkpt>
      <trkpt lat="42.48742" lon="2.77396">
        <ele>163.56</ele>
        <time>2014-06-05T06:52:57Z</time>
      </trkpt>
      <trkpt lat="42.48852" lon="2.77473">
        <ele>157.79</ele>
        <time>2014-06-05T06:53:13Z</time>
      </trkpt>
      <trkpt lat="42.48937" lon="2.77577">
        <ele>152.99</ele>
        <time>2014-06-05T06:53:27Z</time>
      </trkpt>
      <trkpt lat="42.49032" lon="2.77739">
        <ele>146.74</ele>
        <time>2014-06-05T06:53:45Z</time>
      </trkpt>
      <trkpt lat="42.49151" lon="2.77943">
        <ele>141.93</ele>
        <time>2014-06-05T06:54:08Z</time>
      </trkpt>
      <trkpt lat="42.49185" lon="2.78054">
        <ele>140.97</ele>
        <time>2014-06-05T06:54:19Z</time>
      </trkpt>
      <trkpt lat="42.49203" lon="2.7815">
        <ele>138.09</ele>
        <time>2014-06-05T06:54:30Z</time>
      </trkpt>
      <trkpt lat="42.49221" lon="2.78194">
        <ele>137.61</ele>
        <time>2014-06-05T06:54:42Z</time>
      </trkpt>
      <trkpt lat="42.49237" lon="2.78226">
        <ele>138.57</ele>
        <time>2014-06-05T06:54:51Z</time>
      </trkpt>
      <trkpt lat="42.4923" lon="2.78238">
        <ele>139.53</ele>
        <time>2014-06-05T06:54:57Z</time>
      </trkpt>
      <trkpt lat="42.49221" lon="2.78238">
        <ele>139.53</ele>
        <time>2014-06-05T06:55:09Z</time>
      </trkpt>
      <trkpt lat="42.49222" lon="2.78235">
        <ele>141.93</ele>
        <time>2014-06-05T06:55:28Z</time>
      </trkpt>
      <trkpt lat="42.49215" lon="2.78236">
        <ele>140.49</ele>
        <time>2014-06-05T06:55:47Z</time>
      </trkpt>
      <trkpt lat="42.49215" lon="2.78237">
        <ele>140.01</ele>
        <time>2014-06-05T06:56:04Z</time>
      </trkpt>
      <trkpt lat="42.49213" lon="2.78236">
        <ele>140.49</ele>
        <time>2014-06-05T06:56:24Z</time>
      </trkpt>
      <trkpt lat="42.49214" lon="2.78237">
        <ele>140.01</ele>
        <time>2014-06-05T06:56:44Z</time>
      </trkpt>
      <trkpt lat="42.49213" lon="2.78239">
        <ele>139.53</ele>
        <time>2014-06-05T06:57:12Z</time>
      </trkpt>
      <trkpt lat="42.49214" lon="2.78239">
        <ele>140.49</ele>
        <time>2014-06-05T06:57:27Z</time>
      </trkpt>
      <trkpt lat="42.49216" lon="2.78234">
        <ele>143.37</ele>
        <time>2014-06-05T06:57:58Z</time>
      </trkpt>
      <trkpt lat="42.49216" lon="2.78233">
        <ele>143.85</ele>
        <time>2014-06-05T06:58:19Z</time>
      </trkpt>
      <trkpt lat="42.49216" lon="2.78233">
        <ele>162.12</ele>
        <time>2014-06-05T18:35:33Z</time>
      </trkpt>
      <trkpt lat="42.49209" lon="2.78232">
        <ele>157.79</ele>
        <time>2014-06-05T18:36:06Z</time>
      </trkpt>
      <trkpt lat="42.49214" lon="2.78232">
        <ele>151.06</ele>
        <time>2014-06-05T18:36:36Z</time>
      </trkpt>
      <trkpt lat="42.49218" lon="2.78232">
        <ele>144.82</ele>
        <time>2014-06-05T18:37:06Z</time>
      </trkpt>
      <trkpt lat="42.49217" lon="2.78222">
        <ele>143.85</ele>
        <time>2014-06-05T18:37:22Z</time>
      </trkpt>
      <trkpt lat="42.49169" lon="2.78217">
        <ele>143.85</ele>
        <time>2014-06-05T18:37:47Z</time>
      </trkpt>
      <trkpt lat="42.49135" lon="2.78195">
        <ele>143.85</ele>
        <time>2014-06-05T18:38:07Z</time>
      </trkpt>
      <trkpt lat="42.49094" lon="2.78173">
        <ele>143.85</ele>
        <time>2014-06-05T18:38:44Z</time>
      </trkpt>
    </trkseg>
  </trk>
</gpx>